AFR023 KLAX-LFPG
Flight info
| Callsign | AFR023 |
|---|---|
| Flight time | N/A |
| Altitude | 37000 |
| Route | OSHNN1 BEALE DCT EEVUN DCT BCE DCT KD57Q DCT KD66S DCT KD75U DCT KD87W DCT KP06Y DCT KP15A DCT OTLUR/N0482F390 DCT 54N090W 5730N08000W DCT JELCO DCT GRIBS/M085F390 DCT KETLA DCT 63N050W/M085F410 6230N04000W 61N030W 5930N02000W DCT AGORI/N0482F410 DCT OSBOX DCT APSOV DCT PEPOD DCT MAKUX DCT SOSIM L15 KEPAD L151 MID/N0506F290 Y803 SFD UM605 BIBAX |
| Aircraft | A359/H-SDE2E3GHIJ3J4J5LM1ORWXY/LB1D1 |
Departure
| Time | 2026-04-23 23:34 |
|---|---|
| Airport | Los Angeles International Airport (KLAX) |
Arrival
| Time | N/A |
|---|---|
| Airport | Charles de Gaulle International Airport (LFPG) |
| Time | Latitude | Longitude | Altitude | Speed | Heading |
|---|---|---|---|---|---|
| 2026-04-23 23:07 | 33.94725 | -118.40495 | 128 ft | 0 kts | 130° |
| 2026-04-23 23:16 | 33.94717 | -118.40483 | 132 ft | 1 kts | 130° |
| 2026-04-23 23:16 | 33.94732 | -118.40505 | 126 ft | 4 kts | 130° |
| 2026-04-23 23:16 | 33.94748 | -118.40528 | 132 ft | 4 kts | 123° |
| 2026-04-23 23:16 | 33.94756 | -118.40554 | 132 ft | 4 kts | 73° |
| 2026-04-23 23:17 | 33.94741 | -118.40574 | 128 ft | 4 kts | 15° |
| 2026-04-23 23:17 | 33.94720 | -118.40577 | 128 ft | 1 kts | 353° |
| 2026-04-23 23:17 | 33.94694 | -118.40573 | 132 ft | 4 kts | 353° |
| 2026-04-23 23:17 | 33.94693 | -118.40573 | 132 ft | 5 kts | 353° |
| 2026-04-23 23:18 | 33.94727 | -118.40578 | 128 ft | 5 kts | 353° |
| 2026-04-23 23:18 | 33.94744 | -118.40580 | 128 ft | 0 kts | 353° |
| 2026-04-23 23:28 | 33.94809 | -118.40594 | 126 ft | 17 kts | 349° |
| 2026-04-23 23:28 | 33.94823 | -118.40592 | 129 ft | 0 kts | 18° |
| 2026-04-23 23:29 | 33.94854 | -118.40563 | 124 ft | 14 kts | 58° |
| 2026-04-23 23:29 | 33.94880 | -118.40444 | 129 ft | 14 kts | 86° |
| 2026-04-23 23:29 | 33.94893 | -118.40323 | 124 ft | 15 kts | 82° |
| 2026-04-23 23:30 | 33.94906 | -118.40193 | 120 ft | 16 kts | 83° |
| 2026-04-23 23:30 | 33.94915 | -118.40112 | 129 ft | 9 kts | 82° |
| 2026-04-23 23:30 | 33.94922 | -118.40035 | 132 ft | 10 kts | 83° |
| 2026-04-23 23:30 | 33.94939 | -118.39959 | 130 ft | 10 kts | 59° |
| 2026-04-23 23:31 | 33.94996 | -118.39923 | 126 ft | 9 kts | 0° |
| 2026-04-23 23:31 | 33.95033 | -118.39974 | 122 ft | 9 kts | 284° |
| 2026-04-23 23:31 | 33.95035 | -118.40004 | 129 ft | 0 kts | 269° |
| 2026-04-23 23:33 | 33.95033 | -118.40030 | 128 ft | 11 kts | 266° |
| 2026-04-23 23:33 | 33.95005 | -118.40325 | 125 ft | 65 kts | 262° |
| 2026-04-23 23:33 | 33.94929 | -118.41075 | 130 ft | 116 kts | 263° |
| 2026-04-23 23:34 | 33.94809 | -118.42191 | 394 ft | 133 kts | 262° |
| 2026-04-23 23:34 | 33.94707 | -118.43263 | 952 ft | 131 kts | 262° |
| 2026-04-23 23:34 | 33.94581 | -118.44421 | 1360 ft | 147 kts | 264° |
| 2026-04-23 23:34 | 33.94451 | -118.45745 | 1676 ft | 168 kts | 263° |
| 2026-04-23 23:35 | 33.94298 | -118.47221 | 1951 ft | 188 kts | 262° |
| 2026-04-23 23:35 | 33.94213 | -118.48837 | 2350 ft | 203 kts | 264° |
| 2026-04-23 23:35 | 33.94160 | -118.50629 | 2776 ft | 219 kts | 265° |
| 2026-04-23 23:35 | 33.94061 | -118.52544 | 3039 ft | 243 kts | 262° |
| 2026-04-23 23:36 | 33.93879 | -118.54646 | 3464 ft | 258 kts | 262° |
| 2026-04-23 23:36 | 33.93689 | -118.56829 | 4057 ft | 266 kts | 263° |
| 2026-04-23 23:36 | 33.93498 | -118.59083 | 4651 ft | 274 kts | 263° |
| 2026-04-23 23:36 | 33.93051 | -118.61331 | 5266 ft | 280 kts | 244° |
| 2026-04-23 23:37 | 33.91869 | -118.63127 | 5963 ft | 280 kts | 215° |
| 2026-04-23 23:37 | 33.90086 | -118.64026 | 6559 ft | 283 kts | 185° |
| 2026-04-23 23:37 | 33.88089 | -118.64013 | 7064 ft | 287 kts | 173° |
| 2026-04-23 23:37 | 33.86099 | -118.63814 | 7705 ft | 287 kts | 175° |
| 2026-04-23 23:38 | 33.84118 | -118.63423 | 8330 ft | 290 kts | 161° |
| 2026-04-23 23:38 | 33.82308 | -118.62291 | 8798 ft | 299 kts | 147° |
| 2026-04-23 23:38 | 33.80712 | -118.60690 | 9321 ft | 303 kts | 131° |
| 2026-04-23 23:38 | 33.79643 | -118.58530 | 9959 ft | 302 kts | 105° |
| 2026-04-23 23:39 | 33.79466 | -118.56008 | 10284 ft | 308 kts | 74° |
| 2026-04-23 23:39 | 33.80306 | -118.53616 | 10529 ft | 313 kts | 54° |
| 2026-04-23 23:39 | 33.81424 | -118.51342 | 10685 ft | 326 kts | 53° |
| 2026-04-23 23:39 | 33.82592 | -118.48947 | 10869 ft | 338 kts | 54° |
| 2026-04-23 23:40 | 33.83796 | -118.46444 | 11075 ft | 349 kts | 54° |
| 2026-04-23 23:40 | 33.85025 | -118.43861 | 11291 ft | 360 kts | 55° |
| 2026-04-23 23:40 | 33.86276 | -118.41209 | 11488 ft | 369 kts | 55° |
| 2026-04-23 23:40 | 33.87543 | -118.38508 | 11702 ft | 379 kts | 56° |
| 2026-04-23 23:41 | 33.88856 | -118.35699 | 11901 ft | 387 kts | 56° |
| 2026-04-23 23:41 | 33.90186 | -118.32845 | 12111 ft | 395 kts | 56° |
| 2026-04-23 23:41 | 33.91535 | -118.29944 | 12400 ft | 400 kts | 56° |
| 2026-04-23 23:41 | 33.92893 | -118.27027 | 12725 ft | 403 kts | 56° |
| 2026-04-23 23:42 | 33.94278 | -118.24058 | 13015 ft | 407 kts | 56° |
| 2026-04-23 23:42 | 33.95675 | -118.21063 | 13336 ft | 411 kts | 56° |
| 2026-04-23 23:42 | 33.97076 | -118.18061 | 13672 ft | 413 kts | 56° |
| 2026-04-23 23:42 | 33.98495 | -118.15021 | 13967 ft | 416 kts | 56° |
| 2026-04-23 23:43 | 33.99919 | -118.11969 | 14240 ft | 419 kts | 56° |
| 2026-04-23 23:43 | 34.01354 | -118.08892 | 14516 ft | 422 kts | 56° |
| 2026-04-23 23:43 | 34.02778 | -118.05837 | 14821 ft | 424 kts | 56° |
| 2026-04-23 23:43 | 34.04225 | -118.02728 | 15158 ft | 426 kts | 56° |
| 2026-04-23 23:44 | 34.05681 | -117.99598 | 15441 ft | 428 kts | 56° |
| 2026-04-23 23:44 | 34.07142 | -117.96456 | 15710 ft | 431 kts | 56° |
| 2026-04-23 23:44 | 34.08616 | -117.93283 | 16009 ft | 434 kts | 56° |
| 2026-04-23 23:44 | 34.10077 | -117.90136 | 16311 ft | 436 kts | 56° |
| 2026-04-23 23:45 | 34.11542 | -117.86976 | 16597 ft | 439 kts | 56° |
| 2026-04-23 23:45 | 34.13040 | -117.83742 | 16891 ft | 441 kts | 56° |
| 2026-04-23 23:45 | 34.14548 | -117.80484 | 17197 ft | 443 kts | 56° |
| 2026-04-23 23:45 | 34.16053 | -117.77227 | 17536 ft | 444 kts | 56° |
| 2026-04-23 23:46 | 34.17566 | -117.73950 | 17818 ft | 447 kts | 56° |
| 2026-04-23 23:46 | 34.19098 | -117.70634 | 18101 ft | 450 kts | 56° |
| 2026-04-23 23:46 | 34.20603 | -117.67368 | 18350 ft | 451 kts | 56° |
| 2026-04-23 23:46 | 34.22116 | -117.64090 | 18569 ft | 454 kts | 56° |
| 2026-04-23 23:47 | 34.23652 | -117.60751 | 18790 ft | 456 kts | 56° |
| 2026-04-23 23:47 | 34.25194 | -117.57390 | 19079 ft | 456 kts | 56° |
| 2026-04-23 23:47 | 34.26701 | -117.54111 | 19242 ft | 458 kts | 56° |
| 2026-04-23 23:47 | 34.28260 | -117.50719 | 19436 ft | 461 kts | 56° |
| 2026-04-23 23:48 | 34.29849 | -117.47353 | 19715 ft | 460 kts | 53° |
| 2026-04-23 23:48 | 34.31721 | -117.44218 | 19986 ft | 458 kts | 46° |
| 2026-04-23 23:48 | 34.33706 | -117.41238 | 20166 ft | 460 kts | 45° |
| 2026-04-23 23:48 | 34.35733 | -117.38241 | 20376 ft | 461 kts | 43° |
| 2026-04-23 23:49 | 34.39866 | -117.32233 | 20743 ft | 465 kts | 44° |
| 2026-04-23 23:49 | 34.41893 | -117.29236 | 20946 ft | 466 kts | 44° |
| 2026-04-23 23:49 | 34.43946 | -117.26184 | 21124 ft | 467 kts | 44° |
| 2026-04-23 23:50 | 34.45997 | -117.23119 | 21368 ft | 468 kts | 44° |
| 2026-04-23 23:50 | 34.48056 | -117.20031 | 21552 ft | 470 kts | 44° |
| 2026-04-23 23:50 | 34.50118 | -117.16936 | 21695 ft | 471 kts | 44° |
| 2026-04-23 23:50 | 34.52163 | -117.13860 | 21857 ft | 473 kts | 44° |
| 2026-04-23 23:51 | 34.54222 | -117.10761 | 22038 ft | 474 kts | 44° |
| 2026-04-23 23:51 | 34.56316 | -117.07648 | 22229 ft | 475 kts | 43° |
| 2026-04-23 23:51 | 34.58429 | -117.04589 | 22394 ft | 476 kts | 43° |
| 2026-04-23 23:51 | 34.60574 | -117.01486 | 22562 ft | 478 kts | 43° |
| 2026-04-23 23:52 | 34.62719 | -116.98370 | 22755 ft | 479 kts | 43° |
| 2026-04-23 23:52 | 34.64832 | -116.95296 | 22932 ft | 480 kts | 43° |
| 2026-04-23 23:52 | 34.66968 | -116.92182 | 23091 ft | 481 kts | 43° |
| 2026-04-23 23:52 | 34.69119 | -116.89043 | 23272 ft | 483 kts | 43° |
| 2026-04-23 23:53 | 34.71275 | -116.85892 | 23436 ft | 484 kts | 43° |
| 2026-04-23 23:53 | 34.73414 | -116.82762 | 23580 ft | 486 kts | 43° |
| 2026-04-23 23:53 | 34.75588 | -116.79578 | 23716 ft | 487 kts | 43° |
| 2026-04-23 23:53 | 34.77759 | -116.76393 | 23846 ft | 488 kts | 43° |
| 2026-04-23 23:54 | 34.79911 | -116.73235 | 23980 ft | 489 kts | 43° |
| 2026-04-23 23:54 | 34.82076 | -116.70055 | 24101 ft | 490 kts | 43° |
| 2026-04-23 23:54 | 34.84252 | -116.66854 | 24233 ft | 491 kts | 43° |
| 2026-04-23 23:54 | 34.86405 | -116.63688 | 24367 ft | 491 kts | 43° |
| 2026-04-23 23:55 | 34.88671 | -116.60561 | 24526 ft | 491 kts | 44° |
| 2026-04-23 23:55 | 34.90933 | -116.57400 | 24736 ft | 493 kts | 45° |
| 2026-04-23 23:55 | 34.93192 | -116.54253 | 24933 ft | 494 kts | 44° |
| 2026-04-23 23:55 | 34.95490 | -116.51112 | 25083 ft | 496 kts | 44° |
| 2026-04-23 23:56 | 34.97778 | -116.48014 | 25276 ft | 498 kts | 43° |
| 2026-04-23 23:56 | 35.00119 | -116.44858 | 25467 ft | 499 kts | 43° |
| 2026-04-23 23:56 | 35.02450 | -116.41721 | 25682 ft | 500 kts | 43° |
| 2026-04-23 23:56 | 35.04826 | -116.38524 | 25887 ft | 502 kts | 43° |
| 2026-04-23 23:57 | 35.07152 | -116.35396 | 26083 ft | 504 kts | 43° |
| 2026-04-23 23:57 | 35.09493 | -116.32246 | 26275 ft | 505 kts | 43° |
| 2026-04-23 23:57 | 35.11883 | -116.29027 | 26461 ft | 507 kts | 43° |
| 2026-04-23 23:57 | 35.14242 | -116.25847 | 26658 ft | 508 kts | 43° |
| 2026-04-23 23:58 | 35.16624 | -116.22634 | 26826 ft | 510 kts | 43° |
| 2026-04-23 23:58 | 35.19033 | -116.19382 | 27017 ft | 512 kts | 43° |
| 2026-04-23 23:58 | 35.21413 | -116.16168 | 27176 ft | 514 kts | 43° |
| 2026-04-23 23:58 | 35.23783 | -116.12961 | 27448 ft | 515 kts | 43° |
| 2026-04-23 23:59 | 35.26231 | -116.09646 | 27640 ft | 516 kts | 43° |
| 2026-04-23 23:59 | 35.28622 | -116.06406 | 27834 ft | 518 kts | 43° |
| 2026-04-23 23:59 | 35.31051 | -116.03111 | 28039 ft | 520 kts | 43° |
| 2026-04-23 23:59 | 35.33462 | -115.99838 | 28258 ft | 521 kts | 43° |
| 2026-04-24 00:00 | 35.35903 | -115.96520 | 28438 ft | 523 kts | 43° |
| 2026-04-24 00:00 | 35.38327 | -115.93221 | 28607 ft | 526 kts | 43° |
| 2026-04-24 00:00 | 35.40789 | -115.89869 | 28785 ft | 527 kts | 43° |
| 2026-04-24 00:00 | 35.43259 | -115.86502 | 28987 ft | 529 kts | 43° |
| 2026-04-24 00:01 | 35.45682 | -115.83196 | 29154 ft | 531 kts | 43° |
| 2026-04-24 00:01 | 35.48176 | -115.79790 | 29352 ft | 532 kts | 43° |
| 2026-04-24 00:01 | 35.50653 | -115.76403 | 29539 ft | 534 kts | 43° |
| 2026-04-24 00:01 | 35.52321 | -115.74121 | 29650 ft | 535 kts | 43° |
| 2026-04-24 00:02 | 35.54776 | -115.70760 | 29812 ft | 537 kts | 43° |
| 2026-04-24 00:02 | 35.57284 | -115.67322 | 30027 ft | 538 kts | 43° |
| 2026-04-24 00:02 | 35.59790 | -115.63882 | 30194 ft | 539 kts | 43° |
| 2026-04-24 00:02 | 35.62295 | -115.60441 | 30316 ft | 542 kts | 43° |
| 2026-04-24 00:03 | 35.64813 | -115.56980 | 30489 ft | 543 kts | 43° |
| 2026-04-24 00:03 | 35.67333 | -115.53510 | 30742 ft | 542 kts | 43° |
| 2026-04-24 00:03 | 35.69791 | -115.50124 | 30985 ft | 542 kts | 43° |
| 2026-04-24 00:03 | 35.72334 | -115.46629 | 31230 ft | 542 kts | 43° |
| 2026-04-24 00:04 | 35.74855 | -115.43142 | 31467 ft | 542 kts | 43° |
| 2026-04-24 00:04 | 35.77364 | -115.39668 | 31707 ft | 541 kts | 43° |
| 2026-04-24 00:04 | 35.79843 | -115.36234 | 31922 ft | 542 kts | 43° |
| 2026-04-24 00:04 | 35.82322 | -115.32799 | 32152 ft | 542 kts | 43° |
| 2026-04-24 00:05 | 35.84839 | -115.29307 | 32398 ft | 541 kts | 43° |
| 2026-04-24 00:05 | 35.87340 | -115.25835 | 32608 ft | 541 kts | 43° |
| 2026-04-24 00:05 | 35.89835 | -115.22367 | 32861 ft | 541 kts | 43° |
| 2026-04-24 00:05 | 35.92343 | -115.18880 | 33040 ft | 543 kts | 43° |
| 2026-04-24 00:06 | 35.94854 | -115.15382 | 33285 ft | 542 kts | 43° |
| 2026-04-24 00:06 | 35.97350 | -115.11902 | 33554 ft | 542 kts | 43° |
| 2026-04-24 00:06 | 35.99818 | -115.08458 | 33777 ft | 541 kts | 43° |
| 2026-04-24 00:06 | 36.02318 | -115.04967 | 34009 ft | 542 kts | 43° |
| 2026-04-24 00:07 | 36.04811 | -115.01480 | 34172 ft | 541 kts | 43° |
| 2026-04-24 00:07 | 36.07317 | -114.97972 | 34347 ft | 542 kts | 43° |
| 2026-04-24 00:07 | 36.09802 | -114.94492 | 34476 ft | 542 kts | 43° |
| 2026-04-24 00:07 | 36.12313 | -114.90969 | 34678 ft | 542 kts | 43° |
| 2026-04-24 00:08 | 36.14790 | -114.87492 | 34848 ft | 542 kts | 43° |
| 2026-04-24 00:08 | 36.17288 | -114.83981 | 35035 ft | 541 kts | 43° |
| 2026-04-24 00:08 | 36.19757 | -114.80529 | 35233 ft | 540 kts | 42° |
| 2026-04-24 00:08 | 36.22329 | -114.77154 | 35445 ft | 538 kts | 39° |
| 2026-04-24 00:09 | 36.24960 | -114.73868 | 35614 ft | 538 kts | 38° |
| 2026-04-24 00:09 | 36.27634 | -114.70571 | 35796 ft | 537 kts | 38° |
| 2026-04-24 00:09 | 36.30281 | -114.67290 | 36007 ft | 537 kts | 39° |
| 2026-04-24 00:09 | 36.32914 | -114.63995 | 36161 ft | 538 kts | 39° |
| 2026-04-24 00:10 | 36.35549 | -114.60667 | 36290 ft | 539 kts | 39° |
| 2026-04-24 00:10 | 36.38124 | -114.57393 | 36454 ft | 539 kts | 39° |
| 2026-04-24 00:10 | 36.40747 | -114.54045 | 36646 ft | 538 kts | 40° |
| 2026-04-24 00:10 | 36.43376 | -114.50682 | 36790 ft | 539 kts | 39° |
| 2026-04-24 00:11 | 36.48578 | -114.44026 | 36874 ft | 544 kts | 40° |
| 2026-04-24 00:11 | 36.53873 | -114.37238 | 36907 ft | 546 kts | 39° |
| 2026-04-24 00:12 | 36.59160 | -114.30440 | 36880 ft | 545 kts | 39° |
| 2026-04-24 00:12 | 36.64390 | -114.23706 | 36887 ft | 545 kts | 39° |
| 2026-04-24 00:13 | 36.69677 | -114.16886 | 36890 ft | 545 kts | 39° |
| 2026-04-24 00:13 | 36.74918 | -114.10112 | 36899 ft | 545 kts | 39° |
| 2026-04-24 00:14 | 36.80174 | -114.03302 | 36898 ft | 545 kts | 39° |
| 2026-04-24 00:14 | 36.85473 | -113.96423 | 36918 ft | 546 kts | 39° |
| 2026-04-24 00:15 | 36.90711 | -113.89609 | 36899 ft | 546 kts | 39° |
| 2026-04-24 00:15 | 36.95988 | -113.82730 | 36913 ft | 546 kts | 39° |
| 2026-04-24 00:16 | 37.01215 | -113.75899 | 36930 ft | 546 kts | 39° |
| 2026-04-24 00:16 | 37.06044 | -113.68480 | 36949 ft | 557 kts | 53° |
| 2026-04-24 00:17 | 37.09988 | -113.60164 | 36934 ft | 560 kts | 55° |
| 2026-04-24 00:17 | 37.13893 | -113.51666 | 36953 ft | 560 kts | 55° |
| 2026-04-24 00:18 | 37.17766 | -113.43235 | 36902 ft | 560 kts | 55° |
| 2026-04-24 00:18 | 37.21664 | -113.34763 | 36915 ft | 560 kts | 55° |
| 2026-04-24 00:19 | 37.25532 | -113.26349 | 36916 ft | 560 kts | 55° |
| 2026-04-24 00:19 | 37.29416 | -113.17879 | 36917 ft | 560 kts | 55° |
| 2026-04-24 00:20 | 37.33291 | -113.09403 | 36937 ft | 560 kts | 55° |
| 2026-04-24 00:20 | 37.37174 | -113.00889 | 36941 ft | 560 kts | 55° |
| 2026-04-24 00:21 | 37.41034 | -112.92401 | 36954 ft | 560 kts | 55° |
| 2026-04-24 00:21 | 37.44903 | -112.83871 | 36953 ft | 560 kts | 55° |
| 2026-04-24 00:22 | 37.48758 | -112.75348 | 36948 ft | 560 kts | 55° |
| 2026-04-24 00:22 | 37.52630 | -112.66769 | 36940 ft | 561 kts | 55° |
| 2026-04-24 00:23 | 37.56465 | -112.58248 | 36923 ft | 561 kts | 55° |
| 2026-04-24 00:23 | 37.60305 | -112.49696 | 36967 ft | 561 kts | 56° |
| 2026-04-24 00:24 | 37.64120 | -112.41170 | 37005 ft | 560 kts | 56° |
| 2026-04-24 00:24 | 37.68004 | -112.32616 | 37046 ft | 557 kts | 51° |
| 2026-04-24 00:25 | 37.70348 | -112.28791 | 37069 ft | 547 kts | 39° |
| 2026-04-24 00:25 | 37.72987 | -112.25383 | 37080 ft | 543 kts | 38° |
| 2026-04-24 00:25 | 37.78400 | -112.18704 | 37081 ft | 543 kts | 37° |
| 2026-04-24 00:26 | 37.83851 | -112.12034 | 37069 ft | 544 kts | 37° |
| 2026-04-24 00:26 | 37.89267 | -112.05369 | 37018 ft | 544 kts | 37° |
| 2026-04-24 00:27 | 37.94670 | -111.98687 | 36977 ft | 543 kts | 37° |
| 2026-04-24 00:27 | 38.00060 | -111.92002 | 36922 ft | 542 kts | 37° |
| 2026-04-24 00:28 | 38.05437 | -111.85320 | 36928 ft | 542 kts | 38° |
| 2026-04-24 00:28 | 38.10835 | -111.78599 | 36930 ft | 542 kts | 38° |
| 2026-04-24 00:29 | 38.16207 | -111.71898 | 36942 ft | 543 kts | 38° |
| 2026-04-24 00:29 | 38.21591 | -111.65165 | 36951 ft | 542 kts | 38° |
| 2026-04-24 00:30 | 38.26932 | -111.58469 | 36951 ft | 540 kts | 38° |
| 2026-04-24 00:30 | 38.32296 | -111.51733 | 36938 ft | 540 kts | 38° |
| 2026-04-24 00:31 | 38.37646 | -111.45003 | 36946 ft | 540 kts | 38° |
| 2026-04-24 00:31 | 38.43001 | -111.38247 | 36924 ft | 540 kts | 38° |
| 2026-04-24 00:32 | 38.48299 | -111.31547 | 36928 ft | 541 kts | 38° |
| 2026-04-24 00:32 | 38.53641 | -111.24777 | 36915 ft | 538 kts | 39° |
| 2026-04-24 00:33 | 38.58959 | -111.18020 | 36918 ft | 537 kts | 39° |
| 2026-04-24 00:33 | 38.64234 | -111.11307 | 36916 ft | 537 kts | 39° |
| 2026-04-24 00:34 | 38.69519 | -111.04566 | 36916 ft | 537 kts | 39° |
| 2026-04-24 00:34 | 38.74814 | -110.97798 | 36919 ft | 537 kts | 39° |
| 2026-04-24 00:35 | 38.80114 | -110.91008 | 36923 ft | 537 kts | 39° |
| 2026-04-24 00:35 | 38.85345 | -110.84291 | 36921 ft | 537 kts | 39° |
| 2026-04-24 00:36 | 38.90646 | -110.77470 | 36931 ft | 537 kts | 39° |
| 2026-04-24 00:36 | 38.95917 | -110.70672 | 36916 ft | 536 kts | 39° |
| 2026-04-24 00:37 | 39.01144 | -110.63914 | 36907 ft | 536 kts | 39° |
| 2026-04-24 00:37 | 39.06414 | -110.57087 | 36920 ft | 536 kts | 40° |
| 2026-04-24 00:38 | 39.11673 | -110.50257 | 36910 ft | 535 kts | 40° |
| 2026-04-24 00:38 | 39.16893 | -110.43463 | 36921 ft | 534 kts | 40° |
| 2026-04-24 00:39 | 39.22094 | -110.36680 | 36913 ft | 533 kts | 40° |
| 2026-04-24 00:39 | 39.27333 | -110.29833 | 36917 ft | 533 kts | 40° |
| 2026-04-24 00:40 | 39.32504 | -110.23057 | 36926 ft | 533 kts | 40° |
| 2026-04-24 00:40 | 39.37691 | -110.16245 | 36930 ft | 532 kts | 40° |
| 2026-04-24 00:41 | 39.42890 | -110.09399 | 36930 ft | 530 kts | 40° |
| 2026-04-24 00:41 | 39.48052 | -110.02601 | 36941 ft | 530 kts | 40° |
| 2026-04-24 00:42 | 39.53230 | -109.95792 | 36944 ft | 531 kts | 40° |
| 2026-04-24 00:42 | 39.58469 | -109.89031 | 36932 ft | 531 kts | 39° |
| 2026-04-24 00:43 | 39.63689 | -109.82306 | 36932 ft | 531 kts | 40° |
| 2026-04-24 00:43 | 39.68911 | -109.75535 | 36916 ft | 530 kts | 40° |
| 2026-04-24 00:44 | 39.74117 | -109.68760 | 36902 ft | 530 kts | 40° |
| 2026-04-24 00:44 | 39.79331 | -109.61956 | 36903 ft | 530 kts | 40° |
| 2026-04-24 00:45 | 39.84514 | -109.55179 | 36895 ft | 530 kts | 40° |
| 2026-04-24 00:45 | 39.89734 | -109.48338 | 36914 ft | 530 kts | 40° |
| 2026-04-24 00:46 | 39.94906 | -109.41543 | 36879 ft | 529 kts | 40° |
| 2026-04-24 00:46 | 40.00076 | -109.34735 | 36877 ft | 528 kts | 40° |
| 2026-04-24 00:47 | 40.05221 | -109.27946 | 36881 ft | 528 kts | 40° |
| 2026-04-24 00:47 | 40.10384 | -109.21118 | 36880 ft | 528 kts | 40° |
| 2026-04-24 00:48 | 40.15562 | -109.14255 | 36874 ft | 528 kts | 40° |
| 2026-04-24 00:48 | 40.20704 | -109.07423 | 36887 ft | 528 kts | 40° |
| 2026-04-24 00:49 | 40.25845 | -109.00575 | 36881 ft | 528 kts | 40° |
| 2026-04-24 00:49 | 40.30154 | -108.94825 | 36895 ft | 528 kts | 41° |
| 2026-04-24 00:50 | 40.35300 | -108.87943 | 36886 ft | 528 kts | 41° |
| 2026-04-24 00:50 | 40.40410 | -108.81094 | 36887 ft | 528 kts | 41° |
| 2026-04-24 00:51 | 40.45572 | -108.74159 | 36903 ft | 528 kts | 41° |
| 2026-04-24 00:51 | 40.50652 | -108.67317 | 36882 ft | 528 kts | 41° |
| 2026-04-24 00:52 | 40.55788 | -108.60386 | 36886 ft | 528 kts | 41° |
| 2026-04-24 00:52 | 40.60899 | -108.53470 | 36871 ft | 529 kts | 41° |
| 2026-04-24 00:53 | 40.66028 | -108.46512 | 36887 ft | 528 kts | 41° |
| 2026-04-24 00:53 | 40.71159 | -108.39537 | 36903 ft | 529 kts | 41° |
| 2026-04-24 00:54 | 40.76259 | -108.32588 | 36881 ft | 528 kts | 41° |
| 2026-04-24 00:54 | 40.81351 | -108.25633 | 36880 ft | 528 kts | 41° |
| 2026-04-24 00:55 | 40.86450 | -108.18653 | 36877 ft | 528 kts | 41° |
| 2026-04-24 00:55 | 40.91559 | -108.11642 | 36882 ft | 528 kts | 41° |
| 2026-04-24 00:56 | 40.96622 | -108.04679 | 36879 ft | 528 kts | 41° |
| 2026-04-24 00:56 | 41.01712 | -107.97682 | 36873 ft | 527 kts | 41° |
| 2026-04-24 00:57 | 41.06948 | -107.90898 | 36868 ft | 525 kts | 39° |
| 2026-04-24 00:58 | 41.14856 | -107.80812 | 36905 ft | 526 kts | 39° |
| 2026-04-24 00:58 | 41.20095 | -107.74031 | 36927 ft | 526 kts | 40° |
| 2026-04-24 00:59 | 41.25307 | -107.67246 | 36916 ft | 527 kts | 40° |
| 2026-04-24 00:59 | 41.30535 | -107.60423 | 36895 ft | 527 kts | 40° |
| 2026-04-24 01:00 | 41.35756 | -107.53596 | 36866 ft | 527 kts | 40° |
| 2026-04-24 01:00 | 41.40979 | -107.46751 | 36845 ft | 527 kts | 40° |
| 2026-04-24 01:01 | 41.46220 | -107.39868 | 36837 ft | 527 kts | 40° |
| 2026-04-24 01:01 | 41.51417 | -107.33025 | 36844 ft | 528 kts | 40° |
| 2026-04-24 01:02 | 41.56643 | -107.26129 | 36857 ft | 529 kts | 40° |
| 2026-04-24 01:02 | 41.61869 | -107.19214 | 36863 ft | 529 kts | 40° |
| 2026-04-24 01:03 | 41.67109 | -107.12263 | 36877 ft | 529 kts | 40° |
| 2026-04-24 01:03 | 41.72306 | -107.05354 | 36886 ft | 528 kts | 40° |
| 2026-04-24 01:04 | 41.77533 | -106.98391 | 36873 ft | 529 kts | 41° |
| 2026-04-24 01:04 | 41.82745 | -106.91427 | 36852 ft | 530 kts | 41° |
| 2026-04-24 01:05 | 41.87942 | -106.84466 | 36789 ft | 530 kts | 41° |
| 2026-04-24 01:05 | 41.93166 | -106.77452 | 36788 ft | 530 kts | 41° |
| 2026-04-24 01:06 | 41.98358 | -106.70465 | 36771 ft | 530 kts | 41° |
| 2026-04-24 01:06 | 42.03563 | -106.63445 | 36773 ft | 530 kts | 42° |
| 2026-04-24 01:07 | 42.08784 | -106.56384 | 36753 ft | 531 kts | 42° |
| 2026-04-24 01:07 | 42.14023 | -106.49281 | 36756 ft | 532 kts | 42° |
| 2026-04-24 01:08 | 42.19200 | -106.42244 | 36738 ft | 532 kts | 42° |
| 2026-04-24 01:08 | 42.24407 | -106.35150 | 36736 ft | 531 kts | 42° |
| 2026-04-24 01:09 | 42.29595 | -106.28065 | 36738 ft | 532 kts | 43° |
| 2026-04-24 01:09 | 42.34818 | -106.20913 | 36731 ft | 533 kts | 43° |
| 2026-04-24 01:10 | 42.40007 | -106.13790 | 36724 ft | 533 kts | 43° |
| 2026-04-24 01:10 | 42.45190 | -106.06657 | 36729 ft | 533 kts | 43° |
| 2026-04-24 01:11 | 42.50499 | -105.99671 | 36753 ft | 530 kts | 35° |
| 2026-04-24 01:11 | 42.56431 | -105.93800 | 36728 ft | 527 kts | 32° |
| 2026-04-24 01:12 | 42.62409 | -105.88059 | 36740 ft | 526 kts | 32° |
| 2026-04-24 01:12 | 42.68388 | -105.82306 | 36746 ft | 527 kts | 32° |
| 2026-04-24 01:13 | 42.74340 | -105.76551 | 36785 ft | 527 kts | 32° |
| 2026-04-24 01:13 | 42.80324 | -105.70747 | 36777 ft | 526 kts | 32° |
| 2026-04-24 01:14 | 42.86286 | -105.64949 | 36783 ft | 526 kts | 32° |
| 2026-04-24 01:14 | 42.92222 | -105.59165 | 36796 ft | 526 kts | 32° |
| 2026-04-24 01:15 | 42.98187 | -105.53337 | 36804 ft | 527 kts | 32° |
| 2026-04-24 01:15 | 43.04141 | -105.47506 | 36804 ft | 527 kts | 32° |
| 2026-04-24 01:16 | 43.10102 | -105.41653 | 36820 ft | 527 kts | 32° |
| 2026-04-24 01:16 | 43.16082 | -105.35768 | 36822 ft | 527 kts | 32° |
| 2026-04-24 01:17 | 43.22000 | -105.29930 | 36832 ft | 527 kts | 33° |
| 2026-04-24 01:17 | 43.27962 | -105.24034 | 36830 ft | 528 kts | 33° |
| 2026-04-24 01:18 | 43.33900 | -105.18146 | 36839 ft | 528 kts | 33° |
| 2026-04-24 01:18 | 43.39868 | -105.12214 | 36849 ft | 529 kts | 33° |
| 2026-04-24 01:19 | 43.45829 | -105.06274 | 36848 ft | 529 kts | 33° |
| 2026-04-24 01:19 | 43.51774 | -105.00336 | 36853 ft | 529 kts | 33° |
| 2026-04-24 01:20 | 43.57730 | -104.94372 | 36856 ft | 530 kts | 33° |
| 2026-04-24 01:20 | 43.63696 | -104.88381 | 36847 ft | 529 kts | 33° |
| 2026-04-24 01:21 | 43.69687 | -104.82352 | 36852 ft | 529 kts | 34° |
| 2026-04-24 01:21 | 43.75619 | -104.76368 | 36850 ft | 530 kts | 34° |
| 2026-04-24 01:22 | 43.81584 | -104.70335 | 36851 ft | 530 kts | 34° |
| 2026-04-24 01:22 | 43.87479 | -104.64357 | 36845 ft | 530 kts | 34° |
| 2026-04-24 01:23 | 43.93465 | -104.58272 | 36847 ft | 530 kts | 34° |
| 2026-04-24 01:23 | 43.99370 | -104.52253 | 36847 ft | 530 kts | 34° |
| 2026-04-24 01:24 | 44.05303 | -104.46191 | 36846 ft | 530 kts | 34° |
| 2026-04-24 01:24 | 44.11204 | -104.40147 | 36843 ft | 530 kts | 34° |
| 2026-04-24 01:25 | 44.17162 | -104.34029 | 36847 ft | 530 kts | 34° |
| 2026-04-24 01:25 | 44.23075 | -104.27940 | 36847 ft | 530 kts | 34° |
| 2026-04-24 01:26 | 44.29017 | -104.21807 | 36847 ft | 530 kts | 35° |
| 2026-04-24 01:26 | 44.34918 | -104.15700 | 36858 ft | 530 kts | 35° |
| 2026-04-24 01:27 | 44.40865 | -104.09529 | 36859 ft | 530 kts | 35° |
| 2026-04-24 01:27 | 44.46789 | -104.03367 | 36859 ft | 529 kts | 35° |
| 2026-04-24 01:28 | 44.52497 | -103.96820 | 36872 ft | 530 kts | 41° |
| 2026-04-24 01:28 | 44.57888 | -103.89903 | 36864 ft | 530 kts | 42° |
| 2026-04-24 01:29 | 44.63331 | -103.82860 | 36858 ft | 530 kts | 42° |
| 2026-04-24 01:29 | 44.68743 | -103.75848 | 36857 ft | 530 kts | 42° |
| 2026-04-24 01:30 | 44.74130 | -103.68859 | 36856 ft | 530 kts | 42° |
| 2026-04-24 01:30 | 44.79550 | -103.61808 | 36854 ft | 530 kts | 43° |
| 2026-04-24 01:31 | 44.84939 | -103.54779 | 36854 ft | 530 kts | 43° |
| 2026-04-24 01:31 | 44.90346 | -103.47706 | 36850 ft | 530 kts | 43° |
| 2026-04-24 01:32 | 44.95742 | -103.40631 | 36852 ft | 530 kts | 43° |
| 2026-04-24 01:32 | 45.01156 | -103.33511 | 36855 ft | 530 kts | 43° |
| 2026-04-24 01:33 | 45.06526 | -103.26430 | 36853 ft | 530 kts | 43° |
| 2026-04-24 01:33 | 45.11919 | -103.19301 | 36856 ft | 530 kts | 43° |
| 2026-04-24 01:34 | 45.17287 | -103.12184 | 36862 ft | 530 kts | 43° |
| 2026-04-24 01:34 | 45.21774 | -103.06221 | 36860 ft | 530 kts | 43° |
| 2026-04-24 01:35 | 45.28052 | -102.97856 | 36864 ft | 531 kts | 44° |
| 2026-04-24 01:35 | 45.32527 | -102.91876 | 36864 ft | 531 kts | 44° |
| 2026-04-24 01:36 | 45.37910 | -102.84664 | 36861 ft | 531 kts | 44° |
| 2026-04-24 01:36 | 45.43306 | -102.77417 | 36865 ft | 531 kts | 44° |
| 2026-04-24 01:37 | 45.48641 | -102.70230 | 36870 ft | 531 kts | 44° |
| 2026-04-24 01:37 | 45.53986 | -102.63011 | 36867 ft | 531 kts | 44° |
| 2026-04-24 01:38 | 45.59342 | -102.55758 | 36855 ft | 531 kts | 44° |
| 2026-04-24 01:38 | 45.64692 | -102.48490 | 36863 ft | 530 kts | 44° |
| 2026-04-24 01:39 | 45.70017 | -102.41239 | 36878 ft | 529 kts | 44° |
| 2026-04-24 01:39 | 45.75371 | -102.33927 | 36861 ft | 530 kts | 45° |
| 2026-04-24 01:40 | 45.80682 | -102.26653 | 36835 ft | 530 kts | 45° |
| 2026-04-24 01:40 | 45.86031 | -102.19307 | 36861 ft | 530 kts | 45° |
| 2026-04-24 01:41 | 45.91317 | -102.12027 | 36861 ft | 529 kts | 45° |
| 2026-04-24 01:41 | 45.96620 | -102.04705 | 36860 ft | 529 kts | 45° |
| 2026-04-24 01:42 | 46.01942 | -101.97363 | 36859 ft | 530 kts | 44° |
| 2026-04-24 01:42 | 46.07443 | -101.90277 | 36858 ft | 531 kts | 43° |
| 2026-04-24 01:43 | 46.12984 | -101.83275 | 36862 ft | 531 kts | 43° |
| 2026-04-24 01:43 | 46.18488 | -101.76214 | 36858 ft | 530 kts | 43° |
| 2026-04-24 01:44 | 46.24002 | -101.69071 | 36860 ft | 530 kts | 43° |
| 2026-04-24 01:44 | 46.29490 | -101.61932 | 36856 ft | 530 kts | 44° |
| 2026-04-24 01:45 | 46.34985 | -101.54768 | 36857 ft | 530 kts | 44° |
| 2026-04-24 01:45 | 46.40429 | -101.47653 | 36869 ft | 531 kts | 44° |
| 2026-04-24 01:46 | 46.45918 | -101.40459 | 36867 ft | 531 kts | 44° |
| 2026-04-24 01:46 | 46.51390 | -101.33267 | 36852 ft | 531 kts | 44° |
| 2026-04-24 01:47 | 46.56845 | -101.26075 | 36863 ft | 531 kts | 44° |
| 2026-04-24 01:47 | 46.62318 | -101.18841 | 36857 ft | 531 kts | 44° |
| 2026-04-24 01:48 | 46.67791 | -101.11586 | 36846 ft | 531 kts | 44° |
| 2026-04-24 01:48 | 46.73229 | -101.04355 | 36832 ft | 531 kts | 44° |
| 2026-04-24 01:49 | 46.78665 | -100.97109 | 36823 ft | 531 kts | 44° |
| 2026-04-24 01:49 | 46.84128 | -100.89804 | 36820 ft | 531 kts | 44° |
| 2026-04-24 01:50 | 46.89555 | -100.82526 | 36825 ft | 531 kts | 45° |
| 2026-04-24 01:50 | 46.95000 | -100.75203 | 36823 ft | 531 kts | 45° |
| 2026-04-24 01:51 | 47.00418 | -100.67897 | 36819 ft | 531 kts | 45° |
| 2026-04-24 01:51 | 47.05838 | -100.60565 | 36828 ft | 530 kts | 45° |
| 2026-04-24 01:52 | 47.11289 | -100.53170 | 36826 ft | 530 kts | 45° |
| 2026-04-24 01:52 | 47.16652 | -100.45875 | 36811 ft | 530 kts | 45° |
| 2026-04-24 01:53 | 47.22071 | -100.38480 | 36799 ft | 530 kts | 45° |
| 2026-04-24 01:53 | 47.27499 | -100.31052 | 36783 ft | 530 kts | 45° |
| 2026-04-24 01:54 | 47.32856 | -100.23701 | 36780 ft | 530 kts | 45° |
| 2026-04-24 01:54 | 47.38232 | -100.16301 | 36771 ft | 530 kts | 45° |
| 2026-04-24 01:55 | 47.43626 | -100.08854 | 36771 ft | 530 kts | 45° |
| 2026-04-24 01:55 | 47.48988 | -100.01451 | 36739 ft | 530 kts | 44° |
| 2026-04-24 01:56 | 47.54845 | -99.94765 | 36747 ft | 533 kts | 38° |
| 2026-04-24 01:56 | 47.60865 | -99.88259 | 36745 ft | 534 kts | 38° |
| 2026-04-24 01:57 | 47.66854 | -99.81782 | 36739 ft | 533 kts | 38° |
| 2026-04-24 01:57 | 47.72829 | -99.75288 | 36734 ft | 533 kts | 38° |
| 2026-04-24 01:58 | 47.78807 | -99.68765 | 36747 ft | 534 kts | 38° |
| 2026-04-24 01:58 | 47.84849 | -99.62152 | 36728 ft | 537 kts | 38° |
| 2026-04-24 01:59 | 47.90815 | -99.55604 | 36727 ft | 537 kts | 38° |
| 2026-04-24 01:59 | 47.96858 | -99.48954 | 36716 ft | 537 kts | 38° |
| 2026-04-24 02:00 | 48.02831 | -99.42359 | 36714 ft | 537 kts | 38° |
| 2026-04-24 02:00 | 48.08833 | -99.35712 | 36700 ft | 538 kts | 38° |
| 2026-04-24 02:01 | 48.14888 | -99.28986 | 36703 ft | 540 kts | 38° |
| 2026-04-24 02:01 | 48.20940 | -99.22247 | 36681 ft | 541 kts | 38° |
| 2026-04-24 02:02 | 48.26937 | -99.15548 | 36697 ft | 540 kts | 38° |
| 2026-04-24 02:02 | 48.32938 | -99.08823 | 36693 ft | 540 kts | 38° |
| 2026-04-24 02:03 | 48.41980 | -98.98650 | 36694 ft | 540 kts | 38° |
| 2026-04-24 02:03 | 48.47983 | -98.91873 | 36674 ft | 540 kts | 38° |
| 2026-04-24 02:04 | 48.54036 | -98.85017 | 36676 ft | 540 kts | 38° |
| 2026-04-24 02:04 | 48.60005 | -98.78235 | 36666 ft | 540 kts | 38° |
| 2026-04-24 02:05 | 48.66021 | -98.71380 | 36662 ft | 540 kts | 38° |
| 2026-04-24 02:05 | 48.71988 | -98.64561 | 36658 ft | 540 kts | 39° |
| 2026-04-24 02:06 | 48.77994 | -98.57674 | 36653 ft | 540 kts | 39° |
| 2026-04-24 02:06 | 48.83933 | -98.50845 | 36650 ft | 538 kts | 39° |
| 2026-04-24 02:07 | 48.89899 | -98.43971 | 36630 ft | 537 kts | 39° |
| 2026-04-24 02:07 | 48.95860 | -98.37130 | 36553 ft | 538 kts | 39° |
| 2026-04-24 02:08 | 49.01862 | -98.30311 | 36539 ft | 538 kts | 38° |
| 2026-04-24 02:08 | 49.07883 | -98.23559 | 36559 ft | 536 kts | 38° |
| 2026-04-24 02:09 | 49.13953 | -98.16857 | 36550 ft | 536 kts | 37° |
| 2026-04-24 02:09 | 49.20003 | -98.10283 | 36463 ft | 537 kts | 37° |
| 2026-04-24 02:10 | 49.26109 | -98.03755 | 36440 ft | 537 kts | 37° |
| 2026-04-24 02:10 | 49.32245 | -97.97271 | 36478 ft | 535 kts | 37° |
| 2026-04-24 02:11 | 49.38392 | -97.90745 | 36326 ft | 537 kts | 37° |
| 2026-04-24 02:11 | 49.44566 | -97.84189 | 36237 ft | 539 kts | 37° |
| 2026-04-24 02:12 | 49.50703 | -97.77709 | 36350 ft | 537 kts | 37° |
| 2026-04-24 02:12 | 49.56866 | -97.71261 | 36453 ft | 534 kts | 36° |
| 2026-04-24 02:13 | 49.63060 | -97.64844 | 36289 ft | 537 kts | 36° |
| 2026-04-24 02:13 | 49.66134 | -97.61685 | 36184 ft | 540 kts | 36° |
| 2026-04-24 02:13 | 49.69285 | -97.58474 | 36058 ft | 543 kts | 36° |
| 2026-04-24 02:14 | 49.75648 | -97.52112 | 36051 ft | 543 kts | 35° |
| 2026-04-24 02:14 | 49.78854 | -97.48984 | 36203 ft | 540 kts | 34° |
| 2026-04-24 02:14 | 49.82000 | -97.45962 | 36349 ft | 537 kts | 34° |
| 2026-04-24 02:15 | 49.88409 | -97.39948 | 36386 ft | 538 kts | 33° |
| 2026-04-24 02:15 | 49.91629 | -97.37001 | 36251 ft | 541 kts | 33° |
| 2026-04-24 02:15 | 49.94919 | -97.34047 | 36108 ft | 544 kts | 32° |
| 2026-04-24 02:16 | 50.01499 | -97.28340 | 36073 ft | 544 kts | 31° |
| 2026-04-24 02:16 | 50.08233 | -97.22940 | 36127 ft | 545 kts | 29° |
| 2026-04-24 02:17 | 50.15115 | -97.17892 | 36020 ft | 549 kts | 27° |
| 2026-04-24 02:17 | 50.22188 | -97.13162 | 36034 ft | 551 kts | 25° |
| 2026-04-24 02:18 | 50.29279 | -97.08853 | 36225 ft | 548 kts | 22° |
| 2026-04-24 02:18 | 50.36425 | -97.04890 | 36293 ft | 547 kts | 20° |
| 2026-04-24 02:19 | 50.43718 | -97.01193 | 36170 ft | 551 kts | 19° |
| 2026-04-24 02:19 | 50.51069 | -96.97792 | 36142 ft | 552 kts | 18° |
| 2026-04-24 02:20 | 50.58507 | -96.94604 | 36138 ft | 553 kts | 17° |
| 2026-04-24 02:20 | 50.65990 | -96.91566 | 35883 ft | 561 kts | 15° |
| 2026-04-24 02:21 | 50.72334 | -96.89182 | 35823 ft | 564 kts | 14° |
| 2026-04-24 02:21 | 50.76179 | -96.87832 | 35945 ft | 562 kts | 14° |
| 2026-04-24 02:21 | 50.79993 | -96.86560 | 36116 ft | 559 kts | 13° |
| 2026-04-24 02:22 | 50.83789 | -96.85358 | 36313 ft | 556 kts | 12° |
| 2026-04-24 02:22 | 50.87592 | -96.84214 | 36381 ft | 554 kts | 11° |
| 2026-04-24 02:22 | 50.95231 | -96.82099 | 36270 ft | 559 kts | 10° |
| 2026-04-24 02:23 | 50.99031 | -96.81145 | 36145 ft | 562 kts | 9° |
| 2026-04-24 02:23 | 51.02905 | -96.80245 | 36083 ft | 564 kts | 9° |
| 2026-04-24 02:23 | 51.10694 | -96.78661 | 36201 ft | 562 kts | 7° |
| 2026-04-24 02:24 | 51.14579 | -96.77977 | 36353 ft | 560 kts | 6° |
| 2026-04-24 02:24 | 51.18493 | -96.77354 | 36502 ft | 557 kts | 6° |
| 2026-04-24 02:24 | 51.22303 | -96.76808 | 36613 ft | 555 kts | 5° |
| 2026-04-24 02:24 | 51.26163 | -96.76310 | 36616 ft | 555 kts | 4° |
| 2026-04-24 02:25 | 51.33878 | -96.75477 | 36426 ft | 560 kts | 3° |
| 2026-04-24 02:25 | 51.41684 | -96.74860 | 36311 ft | 562 kts | 2° |
| 2026-04-24 02:26 | 51.49469 | -96.74486 | 36518 ft | 558 kts | 1° |
| 2026-04-24 02:26 | 51.57183 | -96.74367 | 36703 ft | 553 kts | 359° |
| 2026-04-24 02:27 | 51.64919 | -96.74651 | 36466 ft | 560 kts | 357° |
| 2026-04-24 02:27 | 51.68827 | -96.74932 | 36270 ft | 565 kts | 356° |
| 2026-04-24 02:27 | 51.72780 | -96.75298 | 36154 ft | 567 kts | 355° |
| 2026-04-24 02:28 | 51.80605 | -96.76236 | 36344 ft | 563 kts | 354° |
| 2026-04-24 02:28 | 51.84492 | -96.76786 | 36568 ft | 558 kts | 353° |
| 2026-04-24 02:28 | 51.88339 | -96.77374 | 36749 ft | 555 kts | 353° |
| 2026-04-24 02:29 | 51.96023 | -96.78653 | 36834 ft | 554 kts | 353° |
| 2026-04-24 02:29 | 51.99892 | -96.79334 | 36721 ft | 556 kts | 352° |
| 2026-04-24 02:29 | 52.03752 | -96.80030 | 36580 ft | 560 kts | 352° |
| 2026-04-24 02:30 | 52.07594 | -96.80739 | 36463 ft | 562 kts | 352° |
| 2026-04-24 02:30 | 52.11467 | -96.81464 | 36452 ft | 562 kts | 352° |
| 2026-04-24 02:30 | 52.19189 | -96.82940 | 36705 ft | 556 kts | 352° |
| 2026-04-24 02:31 | 52.23026 | -96.83679 | 36852 ft | 553 kts | 352° |
| 2026-04-24 02:31 | 52.26841 | -96.84413 | 36923 ft | 551 kts | 352° |
| 2026-04-24 02:31 | 52.34470 | -96.85873 | 36769 ft | 555 kts | 352° |
| 2026-04-24 02:32 | 52.38318 | -96.86609 | 36665 ft | 557 kts | 352° |
| 2026-04-24 02:32 | 52.42187 | -96.87350 | 36607 ft | 558 kts | 352° |
| 2026-04-24 02:32 | 52.49846 | -96.88814 | 36680 ft | 556 kts | 352° |
| 2026-04-24 02:33 | 52.57505 | -96.90269 | 36843 ft | 552 kts | 353° |
| 2026-04-24 02:33 | 52.65112 | -96.91713 | 36892 ft | 551 kts | 353° |
| 2026-04-24 02:34 | 52.72732 | -96.93158 | 36810 ft | 553 kts | 353° |
| 2026-04-24 02:34 | 52.80408 | -96.94604 | 36737 ft | 554 kts | 353° |
| 2026-04-24 02:35 | 52.88077 | -96.96033 | 36791 ft | 553 kts | 353° |
| 2026-04-24 02:35 | 52.95684 | -96.97437 | 36892 ft | 551 kts | 353° |
| 2026-04-24 02:36 | 53.03299 | -96.98821 | 36880 ft | 551 kts | 353° |
| 2026-04-24 02:36 | 53.10966 | -97.00182 | 36815 ft | 553 kts | 353° |
| 2026-04-24 02:37 | 53.18577 | -97.01500 | 36827 ft | 553 kts | 353° |
| 2026-04-24 02:37 | 53.26217 | -97.02792 | 36907 ft | 551 kts | 354° |
| 2026-04-24 02:38 | 53.33858 | -97.04051 | 36925 ft | 551 kts | 354° |
| 2026-04-24 02:38 | 53.41487 | -97.05274 | 36872 ft | 552 kts | 354° |
| 2026-04-24 02:39 | 53.49160 | -97.06481 | 36843 ft | 553 kts | 354° |
| 2026-04-24 02:39 | 53.56782 | -97.07661 | 36880 ft | 552 kts | 354° |
| 2026-04-24 02:40 | 53.64430 | -97.08815 | 36965 ft | 551 kts | 354° |
| 2026-04-24 02:40 | 53.72046 | -97.09926 | 36959 ft | 551 kts | 355° |
| 2026-04-24 02:41 | 53.79746 | -97.11008 | 36923 ft | 552 kts | 355° |
| 2026-04-24 02:41 | 53.87342 | -97.12046 | 36995 ft | 550 kts | 355° |
| 2026-04-24 02:42 | 53.95005 | -97.13062 | 37092 ft | 549 kts | 355° |
| 2026-04-24 02:42 | 54.02570 | -97.14030 | 37059 ft | 550 kts | 355° |
| 2026-04-24 02:43 | 54.10227 | -97.14974 | 37032 ft | 550 kts | 356° |
| 2026-04-24 02:43 | 54.17825 | -97.15857 | 37102 ft | 548 kts | 356° |
| 2026-04-24 02:44 | 54.25449 | -97.16682 | 37166 ft | 548 kts | 356° |
| 2026-04-24 02:44 | 54.33041 | -97.17434 | 37115 ft | 548 kts | 356° |
| 2026-04-24 02:45 | 54.40697 | -97.18122 | 37130 ft | 548 kts | 357° |
| 2026-04-24 02:45 | 54.48321 | -97.18755 | 37178 ft | 548 kts | 357° |
| 2026-04-24 02:46 | 54.55913 | -97.19340 | 37193 ft | 548 kts | 357° |
| 2026-04-24 02:46 | 54.63548 | -97.19879 | 37190 ft | 548 kts | 358° |
| 2026-04-24 02:47 | 54.71129 | -97.20370 | 37207 ft | 548 kts | 358° |
| 2026-04-24 02:47 | 54.78731 | -97.20821 | 37227 ft | 548 kts | 358° |
| 2026-04-24 02:48 | 54.86359 | -97.21220 | 37241 ft | 548 kts | 358° |
| 2026-04-24 02:48 | 54.93991 | -97.21559 | 37239 ft | 548 kts | 358° |
| 2026-04-24 02:49 | 55.01642 | -97.21842 | 37277 ft | 548 kts | 359° |
| 2026-04-24 02:49 | 55.09246 | -97.22061 | 37298 ft | 548 kts | 359° |
| 2026-04-24 02:50 | 55.16831 | -97.22217 | 37304 ft | 548 kts | 359° |
| 2026-04-24 02:50 | 55.24488 | -97.22325 | 37312 ft | 548 kts | 360° |
| 2026-04-24 02:51 | 55.32094 | -97.22390 | 37343 ft | 548 kts | 360° |
| 2026-04-24 02:51 | 55.39717 | -97.22406 | 37333 ft | 550 kts | 360° |
| 2026-04-24 02:52 | 55.47397 | -97.22461 | 37315 ft | 550 kts | 358° |
| 2026-04-24 02:52 | 55.55057 | -97.22975 | 37289 ft | 551 kts | 355° |
| 2026-04-24 02:53 | 55.62730 | -97.23860 | 37316 ft | 551 kts | 354° |
| 2026-04-24 02:53 | 55.70341 | -97.24970 | 37384 ft | 550 kts | 353° |
| 2026-04-24 02:54 | 55.77954 | -97.26233 | 37422 ft | 550 kts | 353° |
| 2026-04-24 02:54 | 55.85569 | -97.27576 | 37424 ft | 551 kts | 352° |
| 2026-04-24 02:55 | 55.93197 | -97.28953 | 37428 ft | 551 kts | 352° |
| 2026-04-24 02:55 | 56.00842 | -97.30350 | 37453 ft | 551 kts | 352° |
| 2026-04-24 02:56 | 56.08470 | -97.31754 | 37474 ft | 551 kts | 352° |
| 2026-04-24 02:56 | 56.16123 | -97.33163 | 37516 ft | 550 kts | 352° |
| 2026-04-24 02:57 | 56.23685 | -97.34545 | 37553 ft | 549 kts | 352° |
| 2026-04-24 02:57 | 56.31289 | -97.35929 | 37511 ft | 550 kts | 352° |
| 2026-04-24 02:58 | 56.38927 | -97.37320 | 37514 ft | 549 kts | 352° |
| 2026-04-24 02:58 | 56.46473 | -97.38724 | 37640 ft | 546 kts | 352° |
| 2026-04-24 02:59 | 56.54025 | -97.40172 | 37640 ft | 546 kts | 352° |
| 2026-04-24 02:59 | 56.61607 | -97.41677 | 37526 ft | 548 kts | 352° |
| 2026-04-24 03:00 | 56.69210 | -97.43203 | 37655 ft | 543 kts | 352° |
| 2026-04-24 03:00 | 56.72950 | -97.43944 | 37796 ft | 540 kts | 352° |
| 2026-04-24 03:00 | 56.76624 | -97.44661 | 37862 ft | 539 kts | 352° |
| 2026-04-24 03:01 | 56.84124 | -97.46087 | 37703 ft | 542 kts | 352° |
| 2026-04-24 03:01 | 56.87855 | -97.46783 | 37588 ft | 544 kts | 353° |
| 2026-04-24 03:01 | 56.91612 | -97.47473 | 37527 ft | 543 kts | 353° |
| 2026-04-24 03:02 | 56.99108 | -97.48808 | 37741 ft | 537 kts | 353° |
| 2026-04-24 03:02 | 57.02815 | -97.49443 | 37850 ft | 535 kts | 353° |
| 2026-04-24 03:02 | 57.06532 | -97.50062 | 37867 ft | 535 kts | 353° |
| 2026-04-24 03:03 | 57.13962 | -97.51249 | 37666 ft | 539 kts | 353° |
| 2026-04-24 03:03 | 57.21447 | -97.52379 | 37618 ft | 539 kts | 354° |
| 2026-04-24 03:04 | 57.28918 | -97.53419 | 37824 ft | 534 kts | 354° |
| 2026-04-24 03:04 | 57.36316 | -97.54330 | 37845 ft | 535 kts | 355° |
| 2026-04-24 03:05 | 57.43761 | -97.55154 | 37698 ft | 538 kts | 355° |
| 2026-04-24 03:05 | 57.51241 | -97.55928 | 37717 ft | 536 kts | 355° |
| 2026-04-24 03:06 | 57.58690 | -97.56648 | 37820 ft | 534 kts | 355° |
| 2026-04-24 03:06 | 57.66090 | -97.57329 | 37817 ft | 535 kts | 355° |
| 2026-04-24 03:07 | 57.73542 | -97.57992 | 37772 ft | 535 kts | 356° |
| 2026-04-24 03:07 | 57.80962 | -97.58642 | 37892 ft | 532 kts | 356° |
| 2026-04-24 03:08 | 57.90810 | -97.59480 | 37866 ft | 533 kts | 356° |
| 2026-04-24 03:09 | 57.98229 | -97.60101 | 37781 ft | 534 kts | 356° |
| 2026-04-24 03:09 | 58.05607 | -97.60712 | 37941 ft | 530 kts | 356° |
| 2026-04-24 03:10 | 58.12953 | -97.61279 | 38045 ft | 528 kts | 356° |
| 2026-04-24 03:10 | 58.20304 | -97.61766 | 37928 ft | 530 kts | 357° |
| 2026-04-24 03:11 | 58.27706 | -97.62160 | 37870 ft | 531 kts | 357° |
| 2026-04-24 03:11 | 58.35111 | -97.62425 | 37991 ft | 528 kts | 358° |
| 2026-04-24 03:12 | 58.42392 | -97.62567 | 38048 ft | 527 kts | 358° |
| 2026-04-24 03:12 | 58.49732 | -97.62601 | 37956 ft | 530 kts | 359° |
| 2026-04-24 03:13 | 58.57115 | -97.62541 | 37917 ft | 530 kts | 359° |
| 2026-04-24 03:13 | 58.64505 | -97.62398 | 38003 ft | 528 kts | 359° |
| 2026-04-24 03:14 | 58.71806 | -97.62171 | 38013 ft | 528 kts | 360° |
| 2026-04-24 03:14 | 58.79186 | -97.61856 | 37953 ft | 529 kts | 0° |
| 2026-04-24 03:15 | 58.86600 | -97.61432 | 37903 ft | 532 kts | 0° |
| 2026-04-24 03:15 | 58.93948 | -97.60996 | 37897 ft | 532 kts | 359° |
| 2026-04-24 03:16 | 59.01366 | -97.60806 | 38040 ft | 529 kts | 358° |
| 2026-04-24 03:16 | 59.08688 | -97.60760 | 38076 ft | 530 kts | 358° |
| 2026-04-24 03:17 | 59.16102 | -97.60745 | 37960 ft | 534 kts | 358° |
| 2026-04-24 03:17 | 59.23529 | -97.60675 | 37896 ft | 535 kts | 358° |
| 2026-04-24 03:18 | 59.30956 | -97.60540 | 38060 ft | 532 kts | 358° |
| 2026-04-24 03:18 | 59.38370 | -97.60349 | 38143 ft | 533 kts | 358° |
| 2026-04-24 03:19 | 59.45805 | -97.60062 | 37996 ft | 536 kts | 358° |
| 2026-04-24 03:19 | 59.53275 | -97.59674 | 37961 ft | 536 kts | 358° |
| 2026-04-24 03:20 | 59.60713 | -97.59234 | 38093 ft | 534 kts | 359° |
| 2026-04-24 03:20 | 59.68136 | -97.58759 | 38121 ft | 535 kts | 358° |
| 2026-04-24 03:21 | 59.75601 | -97.58267 | 38078 ft | 534 kts | 358° |
| 2026-04-24 03:21 | 59.82980 | -97.57765 | 38052 ft | 533 kts | 358° |
| 2026-04-24 03:22 | 59.90392 | -97.57229 | 38041 ft | 533 kts | 359° |
| 2026-04-24 03:22 | 59.97838 | -97.56643 | 38069 ft | 531 kts | 359° |
| 2026-04-24 03:22 | 60.01518 | -97.56326 | 38186 ft | 526 kts | 359° |
| 2026-04-24 03:23 | 60.05125 | -97.55984 | 38328 ft | 522 kts | 359° |
| 2026-04-24 03:23 | 60.12375 | -97.55176 | 38329 ft | 522 kts | 0° |
| 2026-04-24 03:23 | 60.16011 | -97.54698 | 38162 ft | 525 kts | 0° |
| 2026-04-24 03:24 | 60.19668 | -97.54163 | 37990 ft | 528 kts | 1° |
| 2026-04-24 03:24 | 60.26963 | -97.52906 | 37926 ft | 526 kts | 2° |
| 2026-04-24 03:24 | 60.30600 | -97.52162 | 38105 ft | 521 kts | 2° |
| 2026-04-24 03:25 | 60.34177 | -97.51342 | 38322 ft | 516 kts | 4° |
| 2026-04-24 03:25 | 60.41296 | -97.49457 | 38373 ft | 516 kts | 5° |
| 2026-04-24 03:25 | 60.44840 | -97.48396 | 38206 ft | 519 kts | 5° |
| 2026-04-24 03:26 | 60.48422 | -97.47240 | 37984 ft | 523 kts | 6° |
| 2026-04-24 03:26 | 60.52026 | -97.45992 | 37846 ft | 525 kts | 7° |
| 2026-04-24 03:26 | 60.55635 | -97.44653 | 37855 ft | 524 kts | 7° |
| 2026-04-24 03:27 | 60.62767 | -97.41694 | 38067 ft | 520 kts | 9° |
| 2026-04-24 03:27 | 60.69750 | -97.38387 | 38171 ft | 519 kts | 11° |
| 2026-04-24 03:28 | 60.76783 | -97.34648 | 37986 ft | 524 kts | 12° |
| 2026-04-24 03:28 | 60.83777 | -97.30517 | 37906 ft | 525 kts | 14° |
| 2026-04-24 03:29 | 60.90786 | -97.25938 | 37943 ft | 527 kts | 15° |
| 2026-04-24 03:29 | 60.97706 | -97.20979 | 37860 ft | 530 kts | 17° |
| 2026-04-24 03:30 | 61.04621 | -97.15597 | 37906 ft | 530 kts | 18° |
| 2026-04-24 03:30 | 61.11466 | -97.09851 | 37968 ft | 529 kts | 20° |
| 2026-04-24 03:31 | 61.18175 | -97.03819 | 37995 ft | 531 kts | 21° |
| 2026-04-24 03:31 | 61.24933 | -96.97310 | 37935 ft | 533 kts | 22° |
| 2026-04-24 03:32 | 61.31544 | -96.90519 | 37948 ft | 532 kts | 24° |
| 2026-04-24 03:32 | 61.38116 | -96.83335 | 37987 ft | 532 kts | 26° |
| 2026-04-24 03:33 | 61.44563 | -96.75858 | 37980 ft | 533 kts | 27° |
| 2026-04-24 03:33 | 61.50971 | -96.68001 | 37955 ft | 534 kts | 28° |
| 2026-04-24 03:34 | 61.57340 | -96.59761 | 37964 ft | 534 kts | 30° |
| 2026-04-24 03:34 | 61.63564 | -96.51286 | 37974 ft | 535 kts | 31° |
| 2026-04-24 03:35 | 61.69742 | -96.42457 | 37963 ft | 535 kts | 32° |
| 2026-04-24 03:35 | 61.75808 | -96.33376 | 37959 ft | 536 kts | 34° |
| 2026-04-24 03:36 | 61.81753 | -96.24023 | 38017 ft | 536 kts | 35° |
| 2026-04-24 03:36 | 61.87624 | -96.14172 | 38018 ft | 536 kts | 37° |
| 2026-04-24 03:37 | 61.93326 | -96.04045 | 37998 ft | 537 kts | 38° |
| 2026-04-24 03:37 | 61.98961 | -95.93532 | 37981 ft | 538 kts | 40° |
| 2026-04-24 03:38 | 62.04463 | -95.82813 | 38010 ft | 537 kts | 41° |
| 2026-04-24 03:38 | 62.09890 | -95.71827 | 37996 ft | 538 kts | 42° |
| 2026-04-24 03:39 | 62.15259 | -95.60556 | 37903 ft | 541 kts | 43° |
| 2026-04-24 03:39 | 62.20524 | -95.49100 | 37772 ft | 545 kts | 44° |
| 2026-04-24 03:40 | 62.25747 | -95.37325 | 37880 ft | 543 kts | 45° |
| 2026-04-24 03:40 | 62.30846 | -95.25421 | 38048 ft | 541 kts | 46° |
| 2026-04-24 03:41 | 62.35863 | -95.13311 | 37951 ft | 543 kts | 47° |
| 2026-04-24 03:41 | 62.40825 | -95.00912 | 37867 ft | 545 kts | 48° |
| 2026-04-24 03:42 | 62.45626 | -94.88430 | 37976 ft | 544 kts | 49° |
| 2026-04-24 03:42 | 62.50368 | -94.75558 | 37828 ft | 548 kts | 50° |
| 2026-04-24 03:43 | 62.55021 | -94.62345 | 37748 ft | 550 kts | 52° |
| 2026-04-24 03:43 | 62.59499 | -94.49037 | 37869 ft | 548 kts | 53° |
| 2026-04-24 03:44 | 62.63637 | -94.36175 | 37957 ft | 547 kts | 54° |
| 2026-04-24 03:44 | 62.67869 | -94.22387 | 37856 ft | 549 kts | 56° |
| 2026-04-24 03:45 | 62.71983 | -94.08285 | 37825 ft | 550 kts | 57° |
| 2026-04-24 03:45 | 62.75929 | -93.94019 | 37909 ft | 549 kts | 59° |
| 2026-04-24 03:46 | 62.79706 | -93.79536 | 37975 ft | 549 kts | 60° |
| 2026-04-24 03:46 | 62.83292 | -93.64681 | 37862 ft | 551 kts | 62° |
| 2026-04-24 03:47 | 62.86646 | -93.49693 | 37850 ft | 551 kts | 64° |
| 2026-04-24 03:47 | 62.89826 | -93.34385 | 37902 ft | 550 kts | 65° |
| 2026-04-24 03:48 | 62.92796 | -93.18989 | 37900 ft | 550 kts | 67° |
| 2026-04-24 03:48 | 62.95599 | -93.03389 | 37847 ft | 551 kts | 69° |
| 2026-04-24 03:49 | 62.98247 | -92.87549 | 37831 ft | 551 kts | 70° |
| 2026-04-24 03:49 | 63.00714 | -92.71645 | 37874 ft | 550 kts | 71° |
| 2026-04-24 03:50 | 63.03038 | -92.55440 | 37874 ft | 550 kts | 73° |
| 2026-04-24 03:50 | 63.05163 | -92.39350 | 37834 ft | 551 kts | 74° |
| 2026-04-24 03:51 | 63.07141 | -92.22998 | 37814 ft | 551 kts | 76° |
| 2026-04-24 03:51 | 63.08920 | -92.06607 | 37866 ft | 550 kts | 77° |
| 2026-04-24 03:52 | 63.10501 | -91.90084 | 37875 ft | 550 kts | 79° |
| 2026-04-24 03:52 | 63.11897 | -91.73447 | 37840 ft | 551 kts | 81° |
| 2026-04-24 03:53 | 63.13107 | -91.56629 | 37877 ft | 551 kts | 82° |
| 2026-04-24 03:53 | 63.14106 | -91.39983 | 37910 ft | 549 kts | 83° |
| 2026-04-24 03:54 | 63.14803 | -91.25987 | 37936 ft | 548 kts | 85° |
| 2026-04-24 03:54 | 63.15483 | -91.09178 | 37901 ft | 549 kts | 86° |
| 2026-04-24 03:55 | 63.16007 | -90.92249 | 37837 ft | 550 kts | 87° |
| 2026-04-24 03:55 | 63.16383 | -90.75414 | 37862 ft | 549 kts | 88° |
| 2026-04-24 03:56 | 63.16623 | -90.58617 | 37899 ft | 547 kts | 89° |
| 2026-04-24 03:56 | 63.16727 | -90.41753 | 37894 ft | 547 kts | 90° |
| 2026-04-24 03:57 | 63.16698 | -90.24887 | 37847 ft | 548 kts | 92° |
| 2026-04-24 03:57 | 63.16539 | -90.07965 | 37826 ft | 548 kts | 93° |
| 2026-04-24 03:58 | 63.16254 | -89.91106 | 37863 ft | 547 kts | 94° |
| 2026-04-24 03:58 | 63.15845 | -89.74491 | 37883 ft | 546 kts | 95° |
| 2026-04-24 03:59 | 63.15301 | -89.57730 | 37862 ft | 547 kts | 96° |
| 2026-04-24 03:59 | 63.14618 | -89.40879 | 37837 ft | 547 kts | 97° |
| 2026-04-24 04:00 | 63.13807 | -89.24160 | 37858 ft | 546 kts | 98° |
| 2026-04-24 04:00 | 63.12873 | -89.07593 | 37872 ft | 546 kts | 99° |
| 2026-04-24 04:01 | 63.11808 | -88.90979 | 37821 ft | 546 kts | 100° |
| 2026-04-24 04:01 | 63.10616 | -88.74382 | 37823 ft | 546 kts | 101° |
| 2026-04-24 04:02 | 63.09293 | -88.57828 | 37854 ft | 545 kts | 102° |
| 2026-04-24 04:02 | 63.07851 | -88.41518 | 37846 ft | 545 kts | 104° |
| 2026-04-24 04:03 | 63.06211 | -88.25249 | 37832 ft | 545 kts | 105° |
| 2026-04-24 04:03 | 63.04378 | -88.09054 | 37839 ft | 544 kts | 107° |
| 2026-04-24 04:04 | 63.02368 | -87.92943 | 37865 ft | 543 kts | 108° |
| 2026-04-24 04:04 | 63.00210 | -87.77018 | 37892 ft | 543 kts | 110° |
| 2026-04-24 04:05 | 62.97858 | -87.61254 | 37848 ft | 543 kts | 112° |
| 2026-04-24 04:05 | 62.95227 | -87.45655 | 37836 ft | 542 kts | 114° |
| 2026-04-24 04:06 | 62.92399 | -87.30420 | 37881 ft | 541 kts | 116° |
| 2026-04-24 04:06 | 62.89375 | -87.15321 | 37908 ft | 540 kts | 117° |
| 2026-04-24 04:07 | 62.86183 | -87.00361 | 37882 ft | 540 kts | 118° |
| 2026-04-24 04:07 | 62.82855 | -86.85665 | 37858 ft | 540 kts | 120° |
| 2026-04-24 04:08 | 62.79383 | -86.71180 | 37882 ft | 539 kts | 121° |
| 2026-04-24 04:08 | 62.75764 | -86.56825 | 37882 ft | 538 kts | 123° |
| 2026-04-24 04:09 | 62.72030 | -86.42703 | 37885 ft | 538 kts | 124° |
| 2026-04-24 04:09 | 62.68169 | -86.28784 | 37882 ft | 537 kts | 125° |
| 2026-04-24 04:10 | 62.64144 | -86.15072 | 37845 ft | 538 kts | 127° |
| 2026-04-24 04:10 | 62.59946 | -86.01620 | 37840 ft | 537 kts | 128° |
| 2026-04-24 04:11 | 62.53396 | -85.82064 | 37934 ft | 535 kts | 131° |
| 2026-04-24 04:11 | 62.48844 | -85.69308 | 37944 ft | 534 kts | 132° |
| 2026-04-24 04:12 | 62.44172 | -85.56808 | 37880 ft | 535 kts | 133° |
| 2026-04-24 04:12 | 62.39335 | -85.44638 | 37867 ft | 534 kts | 135° |
| 2026-04-24 04:13 | 62.34347 | -85.32867 | 37922 ft | 533 kts | 137° |
| 2026-04-24 04:13 | 62.29203 | -85.21392 | 37970 ft | 531 kts | 139° |
| 2026-04-24 04:14 | 62.23906 | -85.10195 | 37963 ft | 531 kts | 140° |
| 2026-04-24 04:14 | 62.18559 | -84.99452 | 37950 ft | 531 kts | 142° |
| 2026-04-24 04:15 | 62.13030 | -84.88883 | 37932 ft | 530 kts | 143° |
| 2026-04-24 04:15 | 62.07401 | -84.78796 | 37913 ft | 530 kts | 145° |
| 2026-04-24 04:16 | 62.01638 | -84.69133 | 37921 ft | 529 kts | 147° |
| 2026-04-24 04:16 | 61.95749 | -84.59842 | 37972 ft | 527 kts | 148° |
| 2026-04-24 04:17 | 61.89765 | -84.50923 | 38003 ft | 526 kts | 150° |
| 2026-04-24 04:17 | 61.83645 | -84.42283 | 37997 ft | 526 kts | 152° |
| 2026-04-24 04:18 | 61.77450 | -84.33990 | 37961 ft | 524 kts | 153° |
| 2026-04-24 04:18 | 61.71249 | -84.26142 | 38005 ft | 523 kts | 154° |
| 2026-04-24 04:19 | 61.64899 | -84.18573 | 37903 ft | 525 kts | 155° |
| 2026-04-24 04:19 | 61.58469 | -84.11343 | 37896 ft | 524 kts | 157° |
| 2026-04-24 04:20 | 61.51916 | -84.04381 | 38007 ft | 522 kts | 158° |
| 2026-04-24 04:20 | 61.45434 | -83.97863 | 38053 ft | 520 kts | 160° |
| 2026-04-24 04:21 | 61.38853 | -83.91600 | 37984 ft | 521 kts | 161° |
| 2026-04-24 04:21 | 61.32134 | -83.85550 | 37962 ft | 521 kts | 162° |
| 2026-04-24 04:22 | 61.25493 | -83.79884 | 38025 ft | 519 kts | 163° |
| 2026-04-24 04:22 | 61.18767 | -83.74444 | 38017 ft | 518 kts | 164° |
| 2026-04-24 04:23 | 61.11998 | -83.69313 | 37918 ft | 520 kts | 165° |
| 2026-04-24 04:23 | 61.05114 | -83.64474 | 37809 ft | 522 kts | 166° |
| 2026-04-24 04:24 | 60.98232 | -83.59972 | 37918 ft | 519 kts | 167° |
| 2026-04-24 04:24 | 60.91347 | -83.55773 | 38032 ft | 516 kts | 169° |
| 2026-04-24 04:25 | 60.84422 | -83.51850 | 37957 ft | 517 kts | 169° |
| 2026-04-24 04:25 | 60.77445 | -83.48215 | 37938 ft | 516 kts | 171° |
| 2026-04-24 04:26 | 60.70447 | -83.44860 | 37975 ft | 515 kts | 172° |
| 2026-04-24 04:26 | 60.63485 | -83.41794 | 38009 ft | 514 kts | 173° |
| 2026-04-24 04:27 | 60.56401 | -83.38937 | 37955 ft | 513 kts | 174° |
| 2026-04-24 04:27 | 60.49443 | -83.36381 | 38034 ft | 510 kts | 175° |
| 2026-04-24 04:28 | 60.42456 | -83.34048 | 38069 ft | 509 kts | 176° |
| 2026-04-24 04:28 | 60.35430 | -83.31931 | 37996 ft | 510 kts | 176° |
| 2026-04-24 04:29 | 60.28404 | -83.30033 | 37940 ft | 510 kts | 178° |
| 2026-04-24 04:29 | 60.21356 | -83.28279 | 37964 ft | 509 kts | 177° |
| 2026-04-24 04:30 | 60.14275 | -83.26553 | 37849 ft | 512 kts | 177° |
| 2026-04-24 04:30 | 60.07234 | -83.24896 | 37807 ft | 513 kts | 178° |
| 2026-04-24 04:31 | 60.00157 | -83.23301 | 37935 ft | 510 kts | 178° |
| 2026-04-24 04:31 | 59.93136 | -83.21805 | 37987 ft | 509 kts | 178° |
| 2026-04-24 04:32 | 59.86070 | -83.20399 | 37927 ft | 511 kts | 179° |
| 2026-04-24 04:32 | 59.78951 | -83.19080 | 37897 ft | 511 kts | 179° |
| 2026-04-24 04:33 | 59.71907 | -83.17847 | 37957 ft | 510 kts | 179° |
| 2026-04-24 04:33 | 59.64829 | -83.16681 | 37976 ft | 509 kts | 179° |
| 2026-04-24 04:34 | 59.57755 | -83.15601 | 37970 ft | 510 kts | 180° |
| 2026-04-24 04:34 | 59.50665 | -83.14603 | 37950 ft | 510 kts | 180° |
| 2026-04-24 04:35 | 59.43587 | -83.13689 | 37979 ft | 510 kts | 180° |
| 2026-04-24 04:35 | 59.36530 | -83.12875 | 37974 ft | 509 kts | 181° |
| 2026-04-24 04:36 | 59.29431 | -83.12181 | 37959 ft | 510 kts | 181° |
| 2026-04-24 04:36 | 59.22378 | -83.11594 | 37968 ft | 509 kts | 182° |
| 2026-04-24 04:37 | 59.15278 | -83.11089 | 37980 ft | 509 kts | 182° |
| 2026-04-24 04:37 | 59.08195 | -83.10665 | 37983 ft | 509 kts | 182° |
| 2026-04-24 04:38 | 59.01129 | -83.10315 | 38000 ft | 509 kts | 182° |
| 2026-04-24 04:38 | 58.94058 | -83.10030 | 37989 ft | 509 kts | 183° |
| 2026-04-24 04:39 | 58.88102 | -83.09831 | 37987 ft | 509 kts | 183° |
| 2026-04-24 04:39 | 58.81058 | -83.09643 | 37955 ft | 509 kts | 183° |
| 2026-04-24 04:40 | 58.73973 | -83.09518 | 37909 ft | 511 kts | 183° |
| 2026-04-24 04:40 | 58.66877 | -83.09456 | 37943 ft | 510 kts | 184° |
| 2026-04-24 04:41 | 58.59738 | -83.09457 | 37987 ft | 509 kts | 184° |
| 2026-04-24 04:41 | 58.52672 | -83.09523 | 37995 ft | 509 kts | 184° |
| 2026-04-24 04:42 | 58.45619 | -83.09652 | 37974 ft | 510 kts | 185° |
| 2026-04-24 04:42 | 58.38521 | -83.09844 | 37972 ft | 509 kts | 185° |
| 2026-04-24 04:43 | 58.31454 | -83.10095 | 37996 ft | 509 kts | 185° |
| 2026-04-24 04:43 | 58.24356 | -83.10410 | 37979 ft | 509 kts | 185° |
| 2026-04-24 04:44 | 58.17269 | -83.10790 | 37971 ft | 509 kts | 186° |
| 2026-04-24 04:44 | 58.10190 | -83.11233 | 37988 ft | 509 kts | 186° |
| 2026-04-24 04:45 | 58.03104 | -83.11739 | 37995 ft | 508 kts | 186° |
| 2026-04-24 04:45 | 57.96077 | -83.12303 | 38000 ft | 508 kts | 186° |
| 2026-04-24 04:46 | 57.89018 | -83.12936 | 38013 ft | 507 kts | 187° |
| 2026-04-24 04:46 | 57.81985 | -83.13644 | 38003 ft | 507 kts | 187° |
| 2026-04-24 04:47 | 57.74937 | -83.14442 | 37993 ft | 507 kts | 187° |
| 2026-04-24 04:47 | 57.67911 | -83.15330 | 37982 ft | 507 kts | 188° |
| 2026-04-24 04:48 | 57.60851 | -83.16316 | 38000 ft | 506 kts | 188° |
| 2026-04-24 04:48 | 57.53838 | -83.17378 | 38005 ft | 506 kts | 188° |
| 2026-04-24 04:49 | 57.46836 | -83.18490 | 37978 ft | 506 kts | 189° |
| 2026-04-24 04:49 | 57.39831 | -83.19635 | 38030 ft | 505 kts | 189° |
| 2026-04-24 04:50 | 57.32832 | -83.20821 | 38065 ft | 504 kts | 189° |
| 2026-04-24 04:50 | 57.25881 | -83.22058 | 38027 ft | 504 kts | 189° |
| 2026-04-24 04:51 | 57.18870 | -83.23378 | 37970 ft | 505 kts | 190° |
| 2026-04-24 04:51 | 57.11910 | -83.24759 | 38018 ft | 503 kts | 190° |
| 2026-04-24 04:52 | 57.04907 | -83.26234 | 38040 ft | 503 kts | 191° |
| 2026-04-24 04:52 | 56.98014 | -83.27786 | 38007 ft | 503 kts | 191° |
| 2026-04-24 04:53 | 56.91007 | -83.29473 | 37979 ft | 503 kts | 192° |
| 2026-04-24 04:53 | 56.84114 | -83.31246 | 38011 ft | 502 kts | 192° |
| 2026-04-24 04:54 | 56.77251 | -83.33134 | 38049 ft | 501 kts | 193° |
| 2026-04-24 04:54 | 56.70327 | -83.35173 | 38026 ft | 502 kts | 194° |
| 2026-04-24 04:55 | 56.63479 | -83.37328 | 37977 ft | 502 kts | 194° |
| 2026-04-24 04:55 | 56.56613 | -83.39627 | 37958 ft | 503 kts | 195° |
| 2026-04-24 04:56 | 56.49741 | -83.42064 | 37979 ft | 502 kts | 195° |
| 2026-04-24 04:56 | 56.42893 | -83.44627 | 38027 ft | 501 kts | 196° |
| 2026-04-24 04:57 | 56.36090 | -83.47311 | 37989 ft | 502 kts | 197° |
| 2026-04-24 04:57 | 56.29277 | -83.50141 | 37930 ft | 503 kts | 197° |
| 2026-04-24 04:58 | 56.22481 | -83.53093 | 37959 ft | 502 kts | 198° |
| 2026-04-24 04:58 | 56.15736 | -83.56142 | 38025 ft | 501 kts | 199° |
| 2026-04-24 04:59 | 56.08958 | -83.59322 | 37989 ft | 501 kts | 199° |
| 2026-04-24 04:59 | 56.02262 | -83.62574 | 37969 ft | 502 kts | 199° |
| 2026-04-24 05:00 | 55.95551 | -83.65932 | 37987 ft | 501 kts | 200° |
| 2026-04-24 05:00 | 55.88848 | -83.69374 | 38010 ft | 500 kts | 200° |
| 2026-04-24 05:01 | 55.82176 | -83.72886 | 37993 ft | 500 kts | 201° |
| 2026-04-24 05:01 | 55.75527 | -83.76473 | 37991 ft | 500 kts | 201° |
| 2026-04-24 05:02 | 55.68878 | -83.80143 | 37997 ft | 500 kts | 201° |
| 2026-04-24 05:02 | 55.62283 | -83.83863 | 37990 ft | 499 kts | 202° |
| 2026-04-24 05:03 | 55.55661 | -83.87669 | 37994 ft | 499 kts | 202° |
| 2026-04-24 05:03 | 55.49083 | -83.91516 | 37994 ft | 499 kts | 203° |
| 2026-04-24 05:04 | 55.42497 | -83.95439 | 37984 ft | 499 kts | 203° |
| 2026-04-24 05:04 | 55.35933 | -83.99423 | 37977 ft | 498 kts | 204° |
| 2026-04-24 05:05 | 55.29377 | -84.03465 | 38014 ft | 497 kts | 204° |
| 2026-04-24 05:05 | 55.22902 | -84.07537 | 38025 ft | 497 kts | 205° |
| 2026-04-24 05:06 | 55.16419 | -84.11714 | 37989 ft | 497 kts | 205° |
| 2026-04-24 05:06 | 55.09914 | -84.16018 | 37944 ft | 497 kts | 206° |
| 2026-04-24 05:07 | 55.03516 | -84.20351 | 37980 ft | 496 kts | 206° |
| 2026-04-24 05:07 | 54.97093 | -84.24826 | 37983 ft | 496 kts | 207° |
| 2026-04-24 05:08 | 54.90741 | -84.29394 | 37968 ft | 495 kts | 208° |
| 2026-04-24 05:08 | 54.84355 | -84.34139 | 37950 ft | 495 kts | 209° |
| 2026-04-24 05:09 | 54.78136 | -84.38962 | 37959 ft | 493 kts | 210° |
| 2026-04-24 05:09 | 54.71917 | -84.44011 | 37955 ft | 493 kts | 211° |
| 2026-04-24 05:10 | 54.65778 | -84.49223 | 37947 ft | 492 kts | 212° |
| 2026-04-24 05:10 | 54.59653 | -84.54651 | 37932 ft | 491 kts | 213° |
| 2026-04-24 05:11 | 54.53636 | -84.60205 | 37956 ft | 490 kts | 214° |
| 2026-04-24 05:11 | 54.47746 | -84.65879 | 38011 ft | 486 kts | 215° |
| 2026-04-24 05:12 | 54.44781 | -84.68838 | 38124 ft | 482 kts | 216° |
| 2026-04-24 05:12 | 54.41940 | -84.71748 | 38202 ft | 480 kts | 217° |
| 2026-04-24 05:12 | 54.36259 | -84.77813 | 38112 ft | 481 kts | 218° |
| 2026-04-24 05:13 | 54.30664 | -84.84130 | 37960 ft | 481 kts | 220° |
| 2026-04-24 05:13 | 54.27917 | -84.87370 | 37950 ft | 480 kts | 220° |
| 2026-04-24 05:14 | 54.22508 | -84.94039 | 38013 ft | 477 kts | 222° |
| 2026-04-24 05:14 | 54.17275 | -85.00874 | 38045 ft | 475 kts | 224° |
| 2026-04-24 05:15 | 54.12145 | -85.08017 | 37950 ft | 475 kts | 226° |
| 2026-04-24 05:15 | 54.07172 | -85.15396 | 37945 ft | 473 kts | 227° |
| 2026-04-24 05:16 | 54.02365 | -85.22972 | 37976 ft | 470 kts | 229° |
| 2026-04-24 05:16 | 53.97708 | -85.30731 | 38009 ft | 467 kts | 230° |
| 2026-04-24 05:17 | 53.93202 | -85.38645 | 38120 ft | 462 kts | 232° |
| 2026-04-24 05:17 | 53.88888 | -85.46669 | 38088 ft | 462 kts | 234° |
| 2026-04-24 05:18 | 53.84701 | -85.54962 | 37875 ft | 464 kts | 235° |
| 2026-04-24 05:18 | 53.80656 | -85.63505 | 37834 ft | 462 kts | 237° |
| 2026-04-24 05:19 | 53.76815 | -85.72152 | 37956 ft | 459 kts | 239° |
| 2026-04-24 05:19 | 53.73157 | -85.80932 | 37986 ft | 457 kts | 240° |
| 2026-04-24 05:20 | 53.69680 | -85.89881 | 37948 ft | 455 kts | 242° |
| 2026-04-24 05:20 | 53.66440 | -85.98938 | 38005 ft | 451 kts | 244° |
| 2026-04-24 05:21 | 53.63374 | -86.08265 | 37924 ft | 452 kts | 246° |
| 2026-04-24 05:21 | 53.60523 | -86.17677 | 37791 ft | 453 kts | 247° |
| 2026-04-24 05:22 | 53.57832 | -86.27281 | 37817 ft | 451 kts | 249° |
| 2026-04-24 05:22 | 53.55348 | -86.36854 | 37921 ft | 449 kts | 250° |
| 2026-04-24 05:23 | 53.53417 | -86.44978 | 37931 ft | 447 kts | 252° |
| 2026-04-24 05:23 | 53.51362 | -86.54780 | 37926 ft | 446 kts | 254° |
| 2026-04-24 05:24 | 53.49537 | -86.64719 | 37889 ft | 446 kts | 256° |
| 2026-04-24 05:24 | 53.47912 | -86.74798 | 37832 ft | 445 kts | 257° |
| 2026-04-24 05:25 | 53.46489 | -86.84897 | 37864 ft | 444 kts | 259° |
| 2026-04-24 05:25 | 53.45256 | -86.95029 | 37874 ft | 443 kts | 260° |
| 2026-04-24 05:26 | 53.44226 | -87.05172 | 37933 ft | 440 kts | 262° |
| 2026-04-24 05:26 | 53.43371 | -87.15382 | 37916 ft | 440 kts | 263° |
| 2026-04-24 05:27 | 53.42674 | -87.25618 | 37832 ft | 441 kts | 264° |
| 2026-04-24 05:27 | 53.42120 | -87.35836 | 37783 ft | 442 kts | 265° |
| 2026-04-24 05:28 | 53.41698 | -87.46048 | 37826 ft | 440 kts | 266° |
| 2026-04-24 05:28 | 53.41438 | -87.56264 | 37896 ft | 438 kts | 267° |
| 2026-04-24 05:29 | 53.41322 | -87.66495 | 37881 ft | 439 kts | 268° |
| 2026-04-24 05:29 | 53.41327 | -87.76792 | 37787 ft | 440 kts | 269° |
| 2026-04-24 05:30 | 53.41431 | -87.86987 | 37760 ft | 440 kts | 270° |
| 2026-04-24 05:30 | 53.41620 | -87.97239 | 37799 ft | 440 kts | 270° |
| 2026-04-24 05:31 | 53.41857 | -88.07542 | 37842 ft | 439 kts | 270° |
| 2026-04-24 05:31 | 53.42118 | -88.17709 | 37782 ft | 440 kts | 270° |
| 2026-04-24 05:32 | 53.42409 | -88.27923 | 37733 ft | 440 kts | 270° |
| 2026-04-24 05:32 | 53.42740 | -88.38220 | 37721 ft | 440 kts | 271° |
| 2026-04-24 05:33 | 53.43107 | -88.48403 | 37773 ft | 440 kts | 270° |
| 2026-04-24 05:33 | 53.43566 | -88.58636 | 37737 ft | 441 kts | 271° |
| 2026-04-24 05:34 | 53.44432 | -88.74050 | 37702 ft | 442 kts | 272° |
| 2026-04-24 05:34 | 53.45107 | -88.84353 | 37705 ft | 442 kts | 272° |
| 2026-04-24 05:35 | 53.45830 | -88.94508 | 37713 ft | 442 kts | 273° |
| 2026-04-24 05:35 | 53.46638 | -89.04804 | 37688 ft | 444 kts | 273° |
| 2026-04-24 05:36 | 53.47563 | -89.15033 | 37595 ft | 446 kts | 274° |
| 2026-04-24 05:36 | 53.48576 | -89.25332 | 37609 ft | 446 kts | 275° |
| 2026-04-24 05:37 | 53.49640 | -89.35586 | 37681 ft | 445 kts | 275° |
| 2026-04-24 05:37 | 53.50729 | -89.45788 | 37678 ft | 445 kts | 275° |
| 2026-04-24 05:38 | 53.51839 | -89.56040 | 37626 ft | 446 kts | 275° |
| 2026-04-24 05:38 | 53.52957 | -89.66323 | 37594 ft | 447 kts | 275° |
| 2026-04-24 05:39 | 53.54065 | -89.76546 | 37615 ft | 446 kts | 275° |
| 2026-04-24 05:39 | 53.55170 | -89.86813 | 37646 ft | 445 kts | 275° |
| 2026-04-24 05:40 | 53.56275 | -89.97067 | 37628 ft | 446 kts | 275° |
| 2026-04-24 05:40 | 53.57408 | -90.07367 | 37562 ft | 448 kts | 275° |
| 2026-04-24 05:41 | 53.58584 | -90.17654 | 37515 ft | 450 kts | 275° |
| 2026-04-24 05:41 | 53.59795 | -90.28018 | 37541 ft | 449 kts | 275° |
| 2026-04-24 05:42 | 53.61024 | -90.38358 | 37615 ft | 448 kts | 275° |
| 2026-04-24 05:42 | 53.62250 | -90.48559 | 37596 ft | 448 kts | 275° |
| 2026-04-24 05:43 | 53.63502 | -90.58874 | 37548 ft | 450 kts | 275° |
| 2026-04-24 05:43 | 53.64733 | -90.69306 | 37476 ft | 452 kts | 274° |
| 2026-04-24 05:44 | 53.65914 | -90.79645 | 37509 ft | 450 kts | 274° |
| 2026-04-24 05:44 | 53.67069 | -90.90009 | 37580 ft | 449 kts | 274° |
| 2026-04-24 05:45 | 53.68205 | -91.00337 | 37578 ft | 449 kts | 274° |
| 2026-04-24 05:45 | 53.69359 | -91.10739 | 37499 ft | 452 kts | 274° |
| 2026-04-24 05:46 | 53.70569 | -91.21158 | 37369 ft | 456 kts | 274° |
| 2026-04-24 05:46 | 53.71821 | -91.31663 | 37427 ft | 455 kts | 274° |
| 2026-04-24 05:47 | 53.73088 | -91.42128 | 37575 ft | 452 kts | 274° |
| 2026-04-24 05:47 | 53.74366 | -91.52529 | 37614 ft | 452 kts | 274° |
| 2026-04-24 05:48 | 53.75668 | -91.62937 | 37556 ft | 454 kts | 274° |
| 2026-04-24 05:48 | 53.76334 | -91.68191 | 37441 ft | 457 kts | 274° |
| 2026-04-24 05:48 | 53.77002 | -91.73458 | 37347 ft | 459 kts | 274° |
| 2026-04-24 05:49 | 53.78321 | -91.83964 | 37358 ft | 458 kts | 274° |
| 2026-04-24 05:49 | 53.79636 | -91.94433 | 37523 ft | 455 kts | 274° |
| 2026-04-24 05:50 | 53.80976 | -92.04909 | 37588 ft | 455 kts | 274° |
| 2026-04-24 05:50 | 53.82309 | -92.15433 | 37461 ft | 458 kts | 273° |
| 2026-04-24 05:51 | 53.82935 | -92.20737 | 37354 ft | 459 kts | 272° |
| 2026-04-24 05:51 | 53.83515 | -92.25959 | 37272 ft | 460 kts | 272° |
| 2026-04-24 05:51 | 53.84604 | -92.36636 | 37351 ft | 457 kts | 271° |
| 2026-04-24 05:52 | 53.85570 | -92.47185 | 37520 ft | 453 kts | 270° |
| 2026-04-24 05:52 | 53.86452 | -92.57759 | 37512 ft | 452 kts | 269° |
| 2026-04-24 05:53 | 53.87267 | -92.68372 | 37446 ft | 455 kts | 268° |
| 2026-04-24 05:53 | 53.88062 | -92.78975 | 37349 ft | 456 kts | 268° |
| 2026-04-24 05:54 | 53.88813 | -92.89618 | 37432 ft | 453 kts | 267° |
| 2026-04-24 05:54 | 53.89502 | -93.00262 | 37483 ft | 451 kts | 267° |
| 2026-04-24 05:55 | 53.90106 | -93.10789 | 37447 ft | 451 kts | 266° |
| 2026-04-24 05:55 | 53.90630 | -93.21404 | 37361 ft | 453 kts | 264° |
| 2026-04-24 05:56 | 53.91092 | -93.32164 | 37226 ft | 456 kts | 264° |
| 2026-04-24 05:56 | 53.91501 | -93.42785 | 37278 ft | 454 kts | 263° |
| 2026-04-24 05:57 | 53.91883 | -93.53463 | 37430 ft | 451 kts | 263° |
| 2026-04-24 05:57 | 53.92236 | -93.64123 | 37420 ft | 451 kts | 263° |
| 2026-04-24 05:58 | 53.92552 | -93.74752 | 37267 ft | 456 kts | 262° |
| 2026-04-24 05:58 | 53.92698 | -93.80172 | 37099 ft | 460 kts | 262° |
| 2026-04-24 05:58 | 53.92835 | -93.85602 | 37007 ft | 461 kts | 262° |
| 2026-04-24 05:59 | 53.93082 | -93.96397 | 37135 ft | 458 kts | 262° |
| 2026-04-24 05:59 | 53.93200 | -94.01800 | 37264 ft | 455 kts | 262° |
| 2026-04-24 05:59 | 53.93314 | -94.07153 | 37395 ft | 453 kts | 262° |
| 2026-04-24 06:00 | 53.93531 | -94.17894 | 37393 ft | 454 kts | 261° |
| 2026-04-24 06:00 | 53.93703 | -94.28612 | 37074 ft | 462 kts | 261° |
| 2026-04-24 06:01 | 53.93769 | -94.34125 | 36813 ft | 468 kts | 261° |
| 2026-04-24 06:01 | 53.93827 | -94.39682 | 36681 ft | 470 kts | 261° |
| 2026-04-24 06:01 | 53.93952 | -94.50686 | 36905 ft | 465 kts | 261° |
| 2026-04-24 06:02 | 53.94032 | -94.56133 | 37133 ft | 461 kts | 261° |
| 2026-04-24 06:02 | 53.94127 | -94.61587 | 37294 ft | 459 kts | 261° |
| 2026-04-24 06:02 | 53.94357 | -94.72414 | 37264 ft | 463 kts | 262° |
| 2026-04-24 06:03 | 53.94492 | -94.77931 | 37127 ft | 467 kts | 262° |
| 2026-04-24 06:03 | 53.94636 | -94.83403 | 36998 ft | 470 kts | 262° |
| 2026-04-24 06:03 | 53.94971 | -94.94561 | 37030 ft | 470 kts | 263° |
| 2026-04-24 06:04 | 53.95166 | -95.00037 | 37150 ft | 468 kts | 263° |
| 2026-04-24 06:04 | 53.95393 | -95.05547 | 37258 ft | 467 kts | 263° |
| 2026-04-24 06:04 | 53.95932 | -95.16571 | 37325 ft | 468 kts | 264° |
| 2026-04-24 06:05 | 53.96560 | -95.27575 | 37213 ft | 474 kts | 265° |
| 2026-04-24 06:05 | 53.96890 | -95.33157 | 37006 ft | 479 kts | 265° |
| 2026-04-24 06:05 | 53.97237 | -95.38847 | 36813 ft | 484 kts | 266° |
| 2026-04-24 06:06 | 53.97859 | -95.48288 | 36750 ft | 485 kts | 266° |
| 2026-04-24 06:06 | 53.98409 | -95.55856 | 36960 ft | 481 kts | 267° |
| 2026-04-24 06:06 | 53.98855 | -95.61496 | 37129 ft | 479 kts | 268° |
| 2026-04-24 06:07 | 53.99662 | -95.70793 | 37199 ft | 480 kts | 269° |
| 2026-04-24 06:07 | 54.00758 | -95.82067 | 37030 ft | 488 kts | 271° |
| 2026-04-24 06:08 | 54.01381 | -95.87793 | 36762 ft | 497 kts | 272° |
| 2026-04-24 06:08 | 54.02089 | -95.93624 | 36452 ft | 505 kts | 273° |
| 2026-04-24 06:08 | 54.02871 | -95.99436 | 36327 ft | 509 kts | 274° |
| 2026-04-24 06:08 | 54.03741 | -96.05271 | 36416 ft | 509 kts | 276° |
| 2026-04-24 06:09 | 54.04693 | -96.11071 | 36665 ft | 505 kts | 277° |
| 2026-04-24 06:09 | 54.05711 | -96.16778 | 36915 ft | 502 kts | 278° |
| 2026-04-24 06:09 | 54.06795 | -96.22422 | 37047 ft | 502 kts | 280° |
| 2026-04-24 06:09 | 54.07961 | -96.28105 | 37002 ft | 506 kts | 281° |
| 2026-04-24 06:10 | 54.09183 | -96.33716 | 36854 ft | 511 kts | 282° |
| 2026-04-24 06:10 | 54.10488 | -96.39405 | 36677 ft | 518 kts | 285° |
| 2026-04-24 06:10 | 54.11871 | -96.45067 | 36455 ft | 524 kts | 287° |
| 2026-04-24 06:11 | 54.14970 | -96.56496 | 36388 ft | 529 kts | 290° |
| 2026-04-24 06:11 | 54.16609 | -96.61982 | 36559 ft | 526 kts | 291° |
| 2026-04-24 06:11 | 54.18355 | -96.67480 | 36793 ft | 524 kts | 293° |
| 2026-04-24 06:11 | 54.20159 | -96.72851 | 36900 ft | 523 kts | 295° |
| 2026-04-24 06:12 | 54.22062 | -96.78221 | 36890 ft | 525 kts | 296° |
| 2026-04-24 06:12 | 54.24015 | -96.83453 | 36760 ft | 530 kts | 297° |
| 2026-04-24 06:12 | 54.26093 | -96.88741 | 36614 ft | 535 kts | 299° |
| 2026-04-24 06:13 | 54.30479 | -96.99066 | 36556 ft | 539 kts | 303° |
| 2026-04-24 06:13 | 54.35230 | -97.09101 | 36660 ft | 539 kts | 306° |
| 2026-04-24 06:14 | 54.40218 | -97.18561 | 36784 ft | 539 kts | 310° |
| 2026-04-24 06:14 | 54.45554 | -97.27746 | 36735 ft | 542 kts | 313° |
| 2026-04-24 06:15 | 54.51155 | -97.36560 | 36627 ft | 546 kts | 315° |
| 2026-04-24 06:15 | 54.56970 | -97.44887 | 36691 ft | 546 kts | 319° |
| 2026-04-24 06:16 | 54.63048 | -97.52796 | 36856 ft | 545 kts | 321° |
| 2026-04-24 06:16 | 54.69266 | -97.60200 | 36869 ft | 546 kts | 324° |
| 2026-04-24 06:17 | 54.75686 | -97.67356 | 36758 ft | 549 kts | 326° |
| 2026-04-24 06:17 | 54.82245 | -97.74165 | 36740 ft | 550 kts | 328° |
| 2026-04-24 06:18 | 54.88925 | -97.80562 | 36832 ft | 548 kts | 331° |
| 2026-04-24 06:18 | 54.95716 | -97.86535 | 36880 ft | 548 kts | 333° |
| 2026-04-24 06:19 | 55.02693 | -97.92205 | 36814 ft | 550 kts | 335° |
| 2026-04-24 06:19 | 55.09681 | -97.97458 | 36819 ft | 550 kts | 337° |
| 2026-04-24 06:20 | 55.16800 | -98.02356 | 36914 ft | 549 kts | 339° |
| 2026-04-24 06:20 | 55.24008 | -98.06860 | 36965 ft | 549 kts | 341° |
| 2026-04-24 06:21 | 55.31296 | -98.10937 | 36914 ft | 550 kts | 343° |
| 2026-04-24 06:21 | 55.38618 | -98.14599 | 36919 ft | 550 kts | 345° |
| 2026-04-24 06:22 | 55.46037 | -98.17940 | 37000 ft | 549 kts | 347° |
| 2026-04-24 06:22 | 55.53475 | -98.20921 | 37033 ft | 548 kts | 349° |
| 2026-04-24 06:23 | 55.60954 | -98.23540 | 36996 ft | 549 kts | 351° |
| 2026-04-24 06:23 | 55.68482 | -98.25789 | 37003 ft | 549 kts | 352° |
| 2026-04-24 06:24 | 55.76058 | -98.27675 | 37053 ft | 548 kts | 354° |
| 2026-04-24 06:24 | 55.83632 | -98.29213 | 37095 ft | 548 kts | 355° |
| 2026-04-24 06:25 | 55.91202 | -98.30431 | 37074 ft | 548 kts | 357° |
| 2026-04-24 06:25 | 55.98827 | -98.31384 | 37067 ft | 548 kts | 358° |
| 2026-04-24 06:26 | 56.06428 | -98.32088 | 37125 ft | 547 kts | 359° |
| 2026-04-24 06:26 | 56.14029 | -98.32530 | 37180 ft | 546 kts | 0° |
| 2026-04-24 06:27 | 56.21648 | -98.32732 | 37165 ft | 547 kts | 1° |
| 2026-04-24 06:27 | 56.29262 | -98.32708 | 37163 ft | 547 kts | 2° |
| 2026-04-24 06:28 | 56.36853 | -98.32445 | 37185 ft | 547 kts | 4° |
| 2026-04-24 06:28 | 56.44470 | -98.31943 | 37209 ft | 546 kts | 5° |
| 2026-04-24 06:29 | 56.52015 | -98.31233 | 37236 ft | 546 kts | 5° |
| 2026-04-24 06:29 | 56.59624 | -98.30329 | 37238 ft | 546 kts | 6° |
| 2026-04-24 06:30 | 56.67183 | -98.29244 | 37232 ft | 546 kts | 7° |
| 2026-04-24 06:30 | 56.74770 | -98.27977 | 37258 ft | 546 kts | 7° |
| 2026-04-24 06:31 | 56.82291 | -98.26582 | 37284 ft | 546 kts | 8° |
| 2026-04-24 06:31 | 56.89841 | -98.25051 | 37327 ft | 544 kts | 8° |
| 2026-04-24 06:32 | 56.97332 | -98.23429 | 37384 ft | 543 kts | 8° |
| 2026-04-24 06:32 | 57.04852 | -98.21784 | 37406 ft | 544 kts | 8° |
| 2026-04-24 06:33 | 57.12393 | -98.20103 | 37367 ft | 545 kts | 8° |
| 2026-04-24 06:33 | 57.19894 | -98.18381 | 37405 ft | 544 kts | 8° |
| 2026-04-24 06:34 | 57.27422 | -98.16625 | 37472 ft | 543 kts | 8° |
| 2026-04-24 06:34 | 57.34902 | -98.14877 | 37490 ft | 544 kts | 8° |
| 2026-04-24 06:35 | 57.42414 | -98.13147 | 37476 ft | 545 kts | 8° |
| 2026-04-24 06:35 | 57.49930 | -98.11397 | 37466 ft | 545 kts | 8° |
| 2026-04-24 06:36 | 57.57467 | -98.09593 | 37514 ft | 545 kts | 8° |
| 2026-04-24 06:36 | 57.65008 | -98.07749 | 37539 ft | 545 kts | 8° |
| 2026-04-24 06:37 | 57.72464 | -98.05903 | 37554 ft | 545 kts | 8° |
| 2026-04-24 06:37 | 57.79991 | -98.04087 | 37554 ft | 545 kts | 8° |
| 2026-04-24 06:38 | 57.87516 | -98.02324 | 37562 ft | 545 kts | 7° |
| 2026-04-24 06:38 | 57.95046 | -98.00579 | 37604 ft | 545 kts | 7° |
| 2026-04-24 06:39 | 58.02582 | -97.98821 | 37658 ft | 544 kts | 7° |
| 2026-04-24 06:39 | 58.10078 | -97.97055 | 37637 ft | 544 kts | 7° |
| 2026-04-24 06:40 | 58.17628 | -97.95259 | 37612 ft | 545 kts | 7° |
| 2026-04-24 06:40 | 58.25162 | -97.93457 | 37650 ft | 545 kts | 7° |
| 2026-04-24 06:41 | 58.32615 | -97.91665 | 37826 ft | 540 kts | 7° |
| 2026-04-24 06:41 | 58.40050 | -97.89892 | 37849 ft | 540 kts | 6° |
| 2026-04-24 06:42 | 58.47556 | -97.88139 | 37714 ft | 543 kts | 6° |
| 2026-04-24 06:42 | 58.55015 | -97.86455 | 37680 ft | 543 kts | 6° |
| 2026-04-24 06:43 | 58.62517 | -97.84811 | 37786 ft | 540 kts | 6° |
| 2026-04-24 06:43 | 58.69959 | -97.83208 | 37789 ft | 541 kts | 6° |
| 2026-04-24 06:44 | 58.77454 | -97.81600 | 37722 ft | 542 kts | 6° |
| 2026-04-24 06:44 | 58.84959 | -97.80010 | 37785 ft | 540 kts | 5° |
| 2026-04-24 06:45 | 58.92437 | -97.78436 | 37955 ft | 537 kts | 5° |
| 2026-04-24 06:45 | 58.99811 | -97.76917 | 37893 ft | 538 kts | 5° |
| 2026-04-24 06:46 | 59.07299 | -97.75422 | 37778 ft | 540 kts | 5° |
| 2026-04-24 06:46 | 59.14787 | -97.73960 | 37873 ft | 538 kts | 5° |
| 2026-04-24 06:47 | 59.22167 | -97.72521 | 38001 ft | 535 kts | 5° |
| 2026-04-24 06:47 | 59.29600 | -97.71025 | 37980 ft | 536 kts | 5° |
| 2026-04-24 06:48 | 59.36984 | -97.69410 | 37920 ft | 537 kts | 5° |
| 2026-04-24 06:48 | 59.44421 | -97.67649 | 37976 ft | 536 kts | 5° |
| 2026-04-24 06:49 | 59.51828 | -97.65772 | 38038 ft | 536 kts | 6° |
| 2026-04-24 06:49 | 59.59236 | -97.63813 | 38004 ft | 536 kts | 6° |
| 2026-04-24 06:50 | 59.66604 | -97.61802 | 37996 ft | 537 kts | 6° |
| 2026-04-24 06:50 | 59.74018 | -97.59703 | 38060 ft | 536 kts | 6° |
| 2026-04-24 06:51 | 59.81329 | -97.57550 | 38092 ft | 535 kts | 7° |
| 2026-04-24 06:51 | 59.88729 | -97.55320 | 38068 ft | 536 kts | 7° |
| 2026-04-24 06:52 | 59.96111 | -97.53082 | 38082 ft | 536 kts | 6° |
| 2026-04-24 06:52 | 60.03458 | -97.50828 | 38071 ft | 537 kts | 6° |
| 2026-04-24 06:53 | 60.10848 | -97.48535 | 38076 ft | 537 kts | 6° |
| 2026-04-24 06:53 | 60.18265 | -97.46221 | 38081 ft | 537 kts | 6° |
| 2026-04-24 06:54 | 60.24394 | -97.44305 | 38096 ft | 537 kts | 6° |
| 2026-04-24 06:54 | 60.33005 | -97.41619 | 38031 ft | 539 kts | 6° |
| 2026-04-24 06:55 | 60.39210 | -97.39660 | 37924 ft | 541 kts | 7° |
| 2026-04-24 06:55 | 60.46568 | -97.36802 | 38022 ft | 539 kts | 9° |
| 2026-04-24 06:56 | 60.53873 | -97.33415 | 38118 ft | 539 kts | 11° |
| 2026-04-24 06:56 | 60.61159 | -97.29665 | 38189 ft | 536 kts | 12° |
| 2026-04-24 06:57 | 60.68314 | -97.25718 | 38297 ft | 532 kts | 13° |
| 2026-04-24 06:57 | 60.75481 | -97.21614 | 38154 ft | 534 kts | 13° |
| 2026-04-24 06:57 | 60.79028 | -97.19562 | 38031 ft | 536 kts | 13° |
| 2026-04-24 06:58 | 60.82618 | -97.17486 | 37951 ft | 536 kts | 13° |
| 2026-04-24 06:58 | 60.89743 | -97.13370 | 38040 ft | 531 kts | 12° |
| 2026-04-24 06:58 | 60.93296 | -97.11296 | 38261 ft | 527 kts | 12° |
| 2026-04-24 06:59 | 60.96806 | -97.09226 | 38424 ft | 523 kts | 13° |
| 2026-04-24 06:59 | 61.03810 | -97.05036 | 38407 ft | 525 kts | 13° |
| 2026-04-24 06:59 | 61.07327 | -97.02907 | 38240 ft | 528 kts | 13° |
| 2026-04-24 07:00 | 61.10858 | -97.00758 | 38079 ft | 531 kts | 13° |
| 2026-04-24 07:00 | 61.17999 | -96.96373 | 38028 ft | 532 kts | 13° |
| 2026-04-24 07:01 | 61.25040 | -96.91990 | 38103 ft | 531 kts | 13° |
| 2026-04-24 07:01 | 61.32119 | -96.87494 | 38190 ft | 530 kts | 13° |
| 2026-04-24 07:02 | 61.39107 | -96.82953 | 38159 ft | 531 kts | 14° |
| 2026-04-24 07:02 | 61.46183 | -96.78243 | 38121 ft | 532 kts | 14° |
| 2026-04-24 07:03 | 61.53253 | -96.73413 | 38147 ft | 532 kts | 15° |
| 2026-04-24 07:03 | 61.60210 | -96.68532 | 38192 ft | 531 kts | 15° |
| 2026-04-24 07:04 | 61.67243 | -96.63467 | 38183 ft | 532 kts | 15° |
| 2026-04-24 07:04 | 61.74189 | -96.58343 | 38154 ft | 533 kts | 16° |
| 2026-04-24 07:05 | 61.81183 | -96.53061 | 38140 ft | 534 kts | 17° |
| 2026-04-24 07:05 | 61.88214 | -96.47639 | 38045 ft | 537 kts | 17° |
| 2026-04-24 07:06 | 61.95175 | -96.42161 | 38099 ft | 536 kts | 17° |
| 2026-04-24 07:06 | 62.02154 | -96.36552 | 38192 ft | 535 kts | 18° |
| 2026-04-24 07:07 | 62.09089 | -96.30864 | 38203 ft | 536 kts | 18° |
| 2026-04-24 07:07 | 62.19601 | -96.22021 | 37955 ft | 542 kts | 19° |
| 2026-04-24 07:08 | 62.26585 | -96.15926 | 38031 ft | 540 kts | 19° |
| 2026-04-24 07:08 | 62.33435 | -96.09714 | 38175 ft | 538 kts | 20° |
| 2026-04-24 07:09 | 62.40336 | -96.03193 | 38167 ft | 540 kts | 21° |
| 2026-04-24 07:09 | 62.47136 | -95.96449 | 38119 ft | 541 kts | 22° |
| 2026-04-24 07:10 | 62.53951 | -95.89332 | 38155 ft | 540 kts | 23° |
| 2026-04-24 07:10 | 62.60623 | -95.82015 | 38129 ft | 541 kts | 24° |
| 2026-04-24 07:11 | 62.67267 | -95.74382 | 38066 ft | 542 kts | 25° |
| 2026-04-24 07:11 | 62.73886 | -95.66419 | 38099 ft | 543 kts | 26° |
| 2026-04-24 07:12 | 62.80414 | -95.58148 | 38047 ft | 544 kts | 27° |
| 2026-04-24 07:12 | 62.86902 | -95.49494 | 38015 ft | 545 kts | 29° |
| 2026-04-24 07:13 | 62.93296 | -95.40559 | 38048 ft | 545 kts | 30° |
| 2026-04-24 07:13 | 62.99582 | -95.31396 | 38084 ft | 545 kts | 31° |
| 2026-04-24 07:14 | 63.05839 | -95.21872 | 38089 ft | 546 kts | 32° |
| 2026-04-24 07:14 | 63.12008 | -95.11972 | 38081 ft | 546 kts | 33° |
| 2026-04-24 07:15 | 63.17998 | -95.01850 | 38071 ft | 546 kts | 35° |
| 2026-04-24 07:15 | 63.23974 | -94.91279 | 38027 ft | 547 kts | 36° |
| 2026-04-24 07:16 | 63.29845 | -94.80431 | 38013 ft | 548 kts | 37° |
| 2026-04-24 07:16 | 63.35561 | -94.69408 | 38027 ft | 548 kts | 39° |
| 2026-04-24 07:17 | 63.41250 | -94.57948 | 38068 ft | 548 kts | 40° |
| 2026-04-24 07:17 | 63.46757 | -94.46323 | 38056 ft | 548 kts | 41° |
| 2026-04-24 07:18 | 63.52198 | -94.34266 | 38019 ft | 549 kts | 43° |
| 2026-04-24 07:18 | 63.57519 | -94.21907 | 38014 ft | 550 kts | 44° |
| 2026-04-24 07:19 | 63.62675 | -94.09390 | 38015 ft | 550 kts | 45° |
| 2026-04-24 07:19 | 63.67757 | -93.96532 | 38013 ft | 550 kts | 47° |
| 2026-04-24 07:20 | 63.72735 | -93.83413 | 37990 ft | 552 kts | 48° |
| 2026-04-24 07:20 | 63.77608 | -93.70011 | 37906 ft | 554 kts | 49° |
| 2026-04-24 07:21 | 63.82388 | -93.56262 | 37958 ft | 553 kts | 50° |
| 2026-04-24 07:21 | 63.87010 | -93.42356 | 37997 ft | 552 kts | 52° |
| 2026-04-24 07:22 | 63.91483 | -93.28300 | 37974 ft | 553 kts | 53° |
| 2026-04-24 07:22 | 63.95892 | -93.13820 | 37912 ft | 554 kts | 54° |
| 2026-04-24 07:23 | 64.00167 | -92.99158 | 37943 ft | 554 kts | 55° |
| 2026-04-24 07:23 | 64.04287 | -92.84413 | 38025 ft | 553 kts | 56° |
| 2026-04-24 07:24 | 64.08308 | -92.69358 | 37965 ft | 555 kts | 58° |
| 2026-04-24 07:24 | 64.12193 | -92.54154 | 37905 ft | 556 kts | 59° |
| 2026-04-24 07:25 | 64.15975 | -92.38643 | 37948 ft | 556 kts | 60° |
| 2026-04-24 07:25 | 64.19589 | -92.23088 | 37975 ft | 555 kts | 61° |
| 2026-04-24 07:26 | 64.23087 | -92.07251 | 37958 ft | 556 kts | 63° |
| 2026-04-24 07:26 | 64.26461 | -91.91152 | 37909 ft | 557 kts | 64° |
| 2026-04-24 07:27 | 64.29672 | -91.75041 | 37917 ft | 557 kts | 65° |
| 2026-04-24 07:27 | 64.32771 | -91.58685 | 37941 ft | 556 kts | 66° |
| 2026-04-24 07:28 | 64.35746 | -91.42126 | 37995 ft | 556 kts | 67° |
| 2026-04-24 07:28 | 64.38567 | -91.25529 | 37936 ft | 557 kts | 68° |
| 2026-04-24 07:29 | 64.41245 | -91.08778 | 37902 ft | 558 kts | 70° |
| 2026-04-24 07:29 | 64.43790 | -90.91741 | 37934 ft | 557 kts | 71° |
| 2026-04-24 07:30 | 64.46169 | -90.74650 | 37951 ft | 557 kts | 72° |
| 2026-04-24 07:30 | 64.48373 | -90.57508 | 37921 ft | 558 kts | 74° |
| 2026-04-24 07:31 | 64.50413 | -90.40160 | 37905 ft | 558 kts | 75° |
| 2026-04-24 07:31 | 64.52305 | -90.22562 | 37938 ft | 557 kts | 77° |
| 2026-04-24 07:32 | 64.54024 | -90.05094 | 37958 ft | 557 kts | 78° |
| 2026-04-24 07:32 | 64.55622 | -89.87476 | 37926 ft | 557 kts | 79° |
| 2026-04-24 07:33 | 64.57082 | -89.69772 | 37915 ft | 558 kts | 80° |
| 2026-04-24 07:33 | 64.58404 | -89.52017 | 37933 ft | 557 kts | 81° |
| 2026-04-24 07:34 | 64.59599 | -89.34125 | 37962 ft | 557 kts | 82° |
| 2026-04-24 07:34 | 64.60661 | -89.16242 | 37961 ft | 557 kts | 83° |
| 2026-04-24 07:35 | 64.61597 | -88.98453 | 37941 ft | 557 kts | 84° |
| 2026-04-24 07:35 | 64.62437 | -88.80555 | 37945 ft | 557 kts | 85° |
| 2026-04-24 07:36 | 64.63175 | -88.62588 | 37963 ft | 556 kts | 86° |
| 2026-04-24 07:36 | 64.63812 | -88.44626 | 37945 ft | 556 kts | 86° |
| 2026-04-24 07:37 | 64.64358 | -88.26633 | 37928 ft | 557 kts | 87° |
| 2026-04-24 07:37 | 64.64804 | -88.08515 | 37928 ft | 556 kts | 88° |
| 2026-04-24 07:38 | 64.65137 | -87.90560 | 37930 ft | 556 kts | 89° |
| 2026-04-24 07:38 | 64.65365 | -87.72480 | 37933 ft | 556 kts | 90° |
| 2026-04-24 07:39 | 64.65493 | -87.54415 | 37907 ft | 556 kts | 91° |
| 2026-04-24 07:39 | 64.65475 | -87.36496 | 37909 ft | 555 kts | 92° |
| 2026-04-24 07:40 | 64.65294 | -87.18462 | 37930 ft | 555 kts | 94° |
| 2026-04-24 07:40 | 64.64974 | -87.00516 | 37926 ft | 555 kts | 95° |
| 2026-04-24 07:41 | 64.64614 | -86.85508 | 37919 ft | 554 kts | 95° |
| 2026-04-24 07:41 | 64.64083 | -86.67602 | 37913 ft | 554 kts | 96° |
| 2026-04-24 07:42 | 64.63424 | -86.49699 | 37899 ft | 554 kts | 97° |
| 2026-04-24 07:42 | 64.62643 | -86.31763 | 37918 ft | 554 kts | 98° |
| 2026-04-24 07:43 | 64.61758 | -86.13926 | 37936 ft | 553 kts | 99° |
| 2026-04-24 07:43 | 64.60779 | -85.96151 | 37913 ft | 553 kts | 99° |
| 2026-04-24 07:44 | 64.59689 | -85.78442 | 37912 ft | 553 kts | 101° |
| 2026-04-24 07:44 | 64.58465 | -85.60753 | 37914 ft | 553 kts | 102° |
| 2026-04-24 07:45 | 64.57122 | -85.43087 | 37927 ft | 552 kts | 103° |
| 2026-04-24 07:45 | 64.55679 | -85.25522 | 37931 ft | 552 kts | 103° |
| 2026-04-24 07:46 | 64.54146 | -85.08108 | 37924 ft | 552 kts | 104° |
| 2026-04-24 07:46 | 64.52509 | -84.90755 | 37924 ft | 552 kts | 105° |
| 2026-04-24 07:47 | 64.50766 | -84.73424 | 37927 ft | 551 kts | 106° |
| 2026-04-24 07:47 | 64.48912 | -84.56102 | 37950 ft | 551 kts | 107° |
| 2026-04-24 07:48 | 64.46962 | -84.38988 | 37955 ft | 551 kts | 108° |
| 2026-04-24 07:48 | 64.44871 | -84.21878 | 37960 ft | 550 kts | 109° |
| 2026-04-24 07:49 | 64.42625 | -84.04887 | 37954 ft | 550 kts | 110° |
| 2026-04-24 07:49 | 64.40272 | -83.88199 | 37953 ft | 549 kts | 111° |
| 2026-04-24 07:50 | 64.37779 | -83.71482 | 37960 ft | 549 kts | 112° |
| 2026-04-24 07:50 | 64.35182 | -83.54961 | 37934 ft | 548 kts | 114° |
| 2026-04-24 07:51 | 64.32429 | -83.38596 | 37928 ft | 548 kts | 115° |
| 2026-04-24 07:51 | 64.29520 | -83.22347 | 37936 ft | 547 kts | 116° |
| 2026-04-24 07:52 | 64.26477 | -83.06256 | 37938 ft | 546 kts | 117° |
| 2026-04-24 07:52 | 64.23345 | -82.90409 | 37933 ft | 546 kts | 118° |
| 2026-04-24 07:53 | 64.20114 | -82.74698 | 37924 ft | 545 kts | 119° |
| 2026-04-24 07:53 | 64.16765 | -82.59121 | 37878 ft | 545 kts | 120° |
| 2026-04-24 07:54 | 64.13272 | -82.43655 | 37904 ft | 543 kts | 121° |
| 2026-04-24 07:54 | 64.09655 | -82.28453 | 37945 ft | 543 kts | 122° |
| 2026-04-24 07:55 | 64.05926 | -82.13521 | 37941 ft | 542 kts | 124° |
| 2026-04-24 07:55 | 64.02071 | -81.98761 | 37917 ft | 542 kts | 125° |
| 2026-04-24 07:56 | 63.98073 | -81.84132 | 37937 ft | 540 kts | 126° |
| 2026-04-24 07:56 | 63.94011 | -81.69879 | 37959 ft | 540 kts | 127° |
| 2026-04-24 07:57 | 63.89812 | -81.55714 | 37942 ft | 540 kts | 128° |
| 2026-04-24 07:57 | 63.85523 | -81.41789 | 37934 ft | 539 kts | 129° |
| 2026-04-24 07:58 | 63.81121 | -81.27994 | 37945 ft | 538 kts | 130° |
| 2026-04-24 07:58 | 63.76648 | -81.14427 | 37915 ft | 538 kts | 131° |
| 2026-04-24 07:59 | 63.72055 | -81.01041 | 37927 ft | 537 kts | 132° |
| 2026-04-24 07:59 | 63.67383 | -80.87936 | 37940 ft | 536 kts | 133° |
| 2026-04-24 08:00 | 63.62637 | -80.75057 | 37952 ft | 536 kts | 134° |
| 2026-04-24 08:00 | 63.57804 | -80.62277 | 37947 ft | 535 kts | 135° |
| 2026-04-24 08:01 | 63.52933 | -80.49802 | 37996 ft | 534 kts | 135° |
| 2026-04-24 08:01 | 63.47969 | -80.37476 | 38003 ft | 533 kts | 136° |
| 2026-04-24 08:02 | 63.42923 | -80.25319 | 37963 ft | 534 kts | 137° |
| 2026-04-24 08:02 | 63.37796 | -80.13349 | 37903 ft | 533 kts | 138° |
| 2026-04-24 08:03 | 63.32566 | -80.01656 | 37949 ft | 531 kts | 139° |
| 2026-04-24 08:03 | 63.27220 | -79.90318 | 38052 ft | 528 kts | 141° |
| 2026-04-24 08:04 | 63.21803 | -79.79401 | 38051 ft | 528 kts | 142° |
| 2026-04-24 08:04 | 63.16231 | -79.68679 | 37969 ft | 529 kts | 143° |
| 2026-04-24 08:05 | 63.10564 | -79.58218 | 37961 ft | 528 kts | 144° |
| 2026-04-24 08:05 | 63.04879 | -79.48109 | 38036 ft | 526 kts | 146° |
| 2026-04-24 08:06 | 62.99133 | -79.38285 | 38017 ft | 525 kts | 146° |
| 2026-04-24 08:06 | 62.93273 | -79.28712 | 38074 ft | 523 kts | 148° |
| 2026-04-24 08:07 | 62.87360 | -79.19480 | 38056 ft | 523 kts | 149° |
| 2026-04-24 08:07 | 62.81364 | -79.10522 | 38023 ft | 523 kts | 150° |
| 2026-04-24 08:08 | 62.75269 | -79.01797 | 38030 ft | 522 kts | 151° |
| 2026-04-24 08:09 | 62.66057 | -78.89281 | 38032 ft | 520 kts | 152° |
| 2026-04-24 08:09 | 62.59831 | -78.81246 | 38065 ft | 519 kts | 153° |
| 2026-04-24 08:10 | 62.53609 | -78.73561 | 38122 ft | 517 kts | 154° |
| 2026-04-24 08:10 | 62.47273 | -78.66084 | 38108 ft | 517 kts | 156° |
| 2026-04-24 08:11 | 62.40886 | -78.58914 | 38056 ft | 517 kts | 157° |
| 2026-04-24 08:11 | 62.34476 | -78.52055 | 38026 ft | 516 kts | 158° |
| 2026-04-24 08:12 | 62.28006 | -78.45462 | 38071 ft | 515 kts | 159° |
| 2026-04-24 08:12 | 62.21457 | -78.39098 | 38083 ft | 515 kts | 160° |
| 2026-04-24 08:13 | 62.14913 | -78.33052 | 38054 ft | 515 kts | 161° |
| 2026-04-24 08:13 | 62.08292 | -78.27300 | 38067 ft | 514 kts | 162° |
| 2026-04-24 08:14 | 62.01601 | -78.21890 | 38057 ft | 513 kts | 163° |
| 2026-04-24 08:14 | 61.94853 | -78.16861 | 38054 ft | 513 kts | 165° |
| 2026-04-24 08:15 | 61.88096 | -78.12245 | 38054 ft | 512 kts | 166° |
| 2026-04-24 08:15 | 61.81245 | -78.07975 | 38092 ft | 511 kts | 168° |
| 2026-04-24 08:16 | 61.74389 | -78.04097 | 38103 ft | 510 kts | 169° |
| 2026-04-24 08:16 | 61.67497 | -78.00586 | 38067 ft | 510 kts | 170° |
| 2026-04-24 08:17 | 61.60572 | -77.97441 | 38054 ft | 510 kts | 172° |
| 2026-04-24 08:17 | 61.53569 | -77.94629 | 38078 ft | 509 kts | 173° |
| 2026-04-24 08:18 | 61.46556 | -77.92131 | 38056 ft | 510 kts | 174° |
| 2026-04-24 08:18 | 61.39568 | -77.89855 | 37974 ft | 512 kts | 175° |
| 2026-04-24 08:19 | 61.32534 | -77.87865 | 37987 ft | 511 kts | 176° |
| 2026-04-24 08:19 | 61.25475 | -77.86253 | 38039 ft | 510 kts | 177° |
| 2026-04-24 08:20 | 61.18377 | -77.85019 | 38047 ft | 510 kts | 179° |
| 2026-04-24 08:20 | 61.11289 | -77.84172 | 38043 ft | 510 kts | 180° |
| 2026-04-24 08:21 | 61.04229 | -77.83709 | 38059 ft | 509 kts | 182° |
| 2026-04-24 08:21 | 60.97095 | -77.83645 | 38088 ft | 508 kts | 184° |
| 2026-04-24 08:22 | 60.90017 | -77.84018 | 38089 ft | 508 kts | 186° |
| 2026-04-24 08:22 | 60.83040 | -77.84820 | 38097 ft | 507 kts | 187° |
| 2026-04-24 08:23 | 60.76023 | -77.86059 | 38081 ft | 506 kts | 189° |
| 2026-04-24 08:23 | 60.68990 | -77.87723 | 38015 ft | 508 kts | 190° |
| 2026-04-24 08:24 | 60.62008 | -77.89765 | 38008 ft | 507 kts | 192° |
| 2026-04-24 08:24 | 60.55049 | -77.92171 | 38091 ft | 505 kts | 193° |
| 2026-04-24 08:25 | 60.48163 | -77.94909 | 38085 ft | 505 kts | 195° |
| 2026-04-24 08:25 | 60.41321 | -77.97979 | 37979 ft | 507 kts | 196° |